<?xml version="1.0" encoding="UTF-8" standalone="no" ?>
<gpx xmlns="http://www.topografix.com/GPX/1/1" xmlns:xsi="http://www.w3.org/2001/XMLSchema-instance" xsi:schemaLocation="http://www.topografix.com/GPX/1/1 http://www.topografix.com/GPX/1/1/gpx.xsd" version="1.1" creator="VisuGPX - https://www.visugpx.com">
  <metadata>
    <name>121016ChristopheSignore</name>
    <desc><![CDATA[121016ChristopheSignore]]></desc>
  </metadata>
  <trk>
    <name><![CDATA[121016ChristopheSignore]]></name>
    <cmt><![CDATA[HR decrease: 129/98/31]]></cmt>
    <trkseg>
      <trkpt lat="43.40491" lon="6.08161">
        <ele>219.80000305176</ele>
        <time>2012-10-16T13:06:42Z</time>
      </trkpt>
      <trkpt lat="43.40485" lon="6.08153">
        <ele>220</ele>
        <time>2012-10-16T13:06:56Z</time>
      </trkpt>
      <trkpt lat="43.40499" lon="6.08157">
        <ele>220</ele>
        <time>2012-10-16T13:07:06Z</time>
      </trkpt>
      <trkpt lat="43.40509" lon="6.0817">
        <ele>220</ele>
        <time>2012-10-16T13:07:12Z</time>
      </trkpt>
      <trkpt lat="43.40519" lon="6.08196">
        <ele>220</ele>
        <time>2012-10-16T13:07:19Z</time>
      </trkpt>
      <trkpt lat="43.40517" lon="6.08227">
        <ele>220</ele>
        <time>2012-10-16T13:07:25Z</time>
      </trkpt>
      <trkpt lat="43.40498" lon="6.08419">
        <ele>220</ele>
        <time>2012-10-16T13:08:00Z</time>
      </trkpt>
      <trkpt lat="43.40474" lon="6.08631">
        <ele>222</ele>
        <time>2012-10-16T13:08:39Z</time>
      </trkpt>
      <trkpt lat="43.40468" lon="6.08672">
        <ele>224</ele>
        <time>2012-10-16T13:08:47Z</time>
      </trkpt>
      <trkpt lat="43.40465" lon="6.08737">
        <ele>226</ele>
        <time>2012-10-16T13:08:59Z</time>
      </trkpt>
      <trkpt lat="43.40462" lon="6.08778">
        <ele>226</ele>
        <time>2012-10-16T13:09:07Z</time>
      </trkpt>
      <trkpt lat="43.40472" lon="6.08787">
        <ele>226</ele>
        <time>2012-10-16T13:09:10Z</time>
      </trkpt>
      <trkpt lat="43.40491" lon="6.08786">
        <ele>226</ele>
        <time>2012-10-16T13:09:14Z</time>
      </trkpt>
      <trkpt lat="43.40508" lon="6.08794">
        <ele>226</ele>
        <time>2012-10-16T13:09:19Z</time>
      </trkpt>
      <trkpt lat="43.40521" lon="6.08809">
        <ele>226</ele>
        <time>2012-10-16T13:09:25Z</time>
      </trkpt>
      <trkpt lat="43.40535" lon="6.08821">
        <ele>226</ele>
        <time>2012-10-16T13:09:31Z</time>
      </trkpt>
      <trkpt lat="43.40557" lon="6.08838">
        <ele>226.39999389648</ele>
        <time>2012-10-16T13:09:40Z</time>
      </trkpt>
      <trkpt lat="43.40559" lon="6.0884">
        <ele>226.80000305176</ele>
        <time>2012-10-16T13:09:41Z</time>
      </trkpt>
      <trkpt lat="43.4059" lon="6.08876">
        <ele>229.60000610352</ele>
        <time>2012-10-16T13:09:56Z</time>
      </trkpt>
      <trkpt lat="43.40647" lon="6.0892">
        <ele>232.60000610352</ele>
        <time>2012-10-16T13:10:18Z</time>
      </trkpt>
      <trkpt lat="43.40679" lon="6.08955">
        <ele>234.19999694824</ele>
        <time>2012-10-16T13:10:32Z</time>
      </trkpt>
      <trkpt lat="43.40683" lon="6.0896">
        <ele>234.60000610352</ele>
        <time>2012-10-16T13:10:34Z</time>
      </trkpt>
      <trkpt lat="43.40689" lon="6.08973">
        <ele>236.39999389648</ele>
        <time>2012-10-16T13:10:38Z</time>
      </trkpt>
      <trkpt lat="43.40724" lon="6.09108">
        <ele>240.39999389648</ele>
        <time>2012-10-16T13:11:15Z</time>
      </trkpt>
      <trkpt lat="43.40745" lon="6.09197">
        <ele>243</ele>
        <time>2012-10-16T13:11:39Z</time>
      </trkpt>
      <trkpt lat="43.40755" lon="6.09268">
        <ele>247</ele>
        <time>2012-10-16T13:11:57Z</time>
      </trkpt>
      <trkpt lat="43.40762" lon="6.09323">
        <ele>249</ele>
        <time>2012-10-16T13:12:11Z</time>
      </trkpt>
      <trkpt lat="43.40763" lon="6.09368">
        <ele>249</ele>
        <time>2012-10-16T13:12:22Z</time>
      </trkpt>
      <trkpt lat="43.40767" lon="6.09388">
        <ele>249.39999389648</ele>
        <time>2012-10-16T13:12:27Z</time>
      </trkpt>
      <trkpt lat="43.40784" lon="6.09438">
        <ele>251.19999694824</ele>
        <time>2012-10-16T13:12:39Z</time>
      </trkpt>
      <trkpt lat="43.40792" lon="6.09486">
        <ele>251.19999694824</ele>
        <time>2012-10-16T13:12:48Z</time>
      </trkpt>
      <trkpt lat="43.40799" lon="6.09506">
        <ele>249.80000305176</ele>
        <time>2012-10-16T13:12:51Z</time>
      </trkpt>
      <trkpt lat="43.40838" lon="6.0953">
        <ele>249</ele>
        <time>2012-10-16T13:12:58Z</time>
      </trkpt>
      <trkpt lat="43.40876" lon="6.09546">
        <ele>249</ele>
        <time>2012-10-16T13:13:07Z</time>
      </trkpt>
      <trkpt lat="43.40882" lon="6.09548">
        <ele>249</ele>
        <time>2012-10-16T13:13:09Z</time>
      </trkpt>
      <trkpt lat="43.40899" lon="6.09558">
        <ele>249</ele>
        <time>2012-10-16T13:13:15Z</time>
      </trkpt>
      <trkpt lat="43.40938" lon="6.09577">
        <ele>252</ele>
        <time>2012-10-16T13:13:31Z</time>
      </trkpt>
      <trkpt lat="43.41005" lon="6.09608">
        <ele>261.20001220703</ele>
        <time>2012-10-16T13:14:02Z</time>
      </trkpt>
      <trkpt lat="43.41069" lon="6.0965">
        <ele>270</ele>
        <time>2012-10-16T13:14:37Z</time>
      </trkpt>
      <trkpt lat="43.4109" lon="6.09678">
        <ele>272</ele>
        <time>2012-10-16T13:14:51Z</time>
      </trkpt>
      <trkpt lat="43.41098" lon="6.09694">
        <ele>272</ele>
        <time>2012-10-16T13:14:58Z</time>
      </trkpt>
      <trkpt lat="43.41107" lon="6.09713">
        <ele>272</ele>
        <time>2012-10-16T13:15:04Z</time>
      </trkpt>
      <trkpt lat="43.41125" lon="6.09767">
        <ele>272</ele>
        <time>2012-10-16T13:15:17Z</time>
      </trkpt>
      <trkpt lat="43.41168" lon="6.09838">
        <ele>270.60000610352</ele>
        <time>2012-10-16T13:15:31Z</time>
      </trkpt>
      <trkpt lat="43.41187" lon="6.09867">
        <ele>269.79998779297</ele>
        <time>2012-10-16T13:15:36Z</time>
      </trkpt>
      <trkpt lat="43.41218" lon="6.09901">
        <ele>269.79998779297</ele>
        <time>2012-10-16T13:15:45Z</time>
      </trkpt>
      <trkpt lat="43.41236" lon="6.09925">
        <ele>269.79998779297</ele>
        <time>2012-10-16T13:15:52Z</time>
      </trkpt>
      <trkpt lat="43.41269" lon="6.09974">
        <ele>269.79998779297</ele>
        <time>2012-10-16T13:16:05Z</time>
      </trkpt>
      <trkpt lat="43.41275" lon="6.09987">
        <ele>269.79998779297</ele>
        <time>2012-10-16T13:16:08Z</time>
      </trkpt>
      <trkpt lat="43.41274" lon="6.09996">
        <ele>269.79998779297</ele>
        <time>2012-10-16T13:16:10Z</time>
      </trkpt>
      <trkpt lat="43.41267" lon="6.10005">
        <ele>269.79998779297</ele>
        <time>2012-10-16T13:16:14Z</time>
      </trkpt>
      <trkpt lat="43.41237" lon="6.10022">
        <ele>269.79998779297</ele>
        <time>2012-10-16T13:16:26Z</time>
      </trkpt>
      <trkpt lat="43.41224" lon="6.1003">
        <ele>271.79998779297</ele>
        <time>2012-10-16T13:16:32Z</time>
      </trkpt>
      <trkpt lat="43.41219" lon="6.1004">
        <ele>271.79998779297</ele>
        <time>2012-10-16T13:16:36Z</time>
      </trkpt>
      <trkpt lat="43.41224" lon="6.10058">
        <ele>273.79998779297</ele>
        <time>2012-10-16T13:16:43Z</time>
      </trkpt>
      <trkpt lat="43.41235" lon="6.10108">
        <ele>273.79998779297</ele>
        <time>2012-10-16T13:16:53Z</time>
      </trkpt>
      <trkpt lat="43.41239" lon="6.10121">
        <ele>273.79998779297</ele>
        <time>2012-10-16T13:16:55Z</time>
      </trkpt>
      <trkpt lat="43.41276" lon="6.10232">
        <ele>272.60000610352</ele>
        <time>2012-10-16T13:17:12Z</time>
      </trkpt>
      <trkpt lat="43.41287" lon="6.10274">
        <ele>271.60000610352</ele>
        <time>2012-10-16T13:17:18Z</time>
      </trkpt>
      <trkpt lat="43.413" lon="6.10305">
        <ele>272</ele>
        <time>2012-10-16T13:17:25Z</time>
      </trkpt>
      <trkpt lat="43.41304" lon="6.10314">
        <ele>273.39999389648</ele>
        <time>2012-10-16T13:17:28Z</time>
      </trkpt>
      <trkpt lat="43.41347" lon="6.10391">
        <ele>275.79998779297</ele>
        <time>2012-10-16T13:17:48Z</time>
      </trkpt>
      <trkpt lat="43.41362" lon="6.10425">
        <ele>275.79998779297</ele>
        <time>2012-10-16T13:17:59Z</time>
      </trkpt>
      <trkpt lat="43.4137" lon="6.10451">
        <ele>275.79998779297</ele>
        <time>2012-10-16T13:18:05Z</time>
      </trkpt>
      <trkpt lat="43.41402" lon="6.10522">
        <ele>275.79998779297</ele>
        <time>2012-10-16T13:18:21Z</time>
      </trkpt>
      <trkpt lat="43.41415" lon="6.10551">
        <ele>275.79998779297</ele>
        <time>2012-10-16T13:18:28Z</time>
      </trkpt>
      <trkpt lat="43.41428" lon="6.10569">
        <ele>275.79998779297</ele>
        <time>2012-10-16T13:18:33Z</time>
      </trkpt>
      <trkpt lat="43.41438" lon="6.10576">
        <ele>275.39999389648</ele>
        <time>2012-10-16T13:18:36Z</time>
      </trkpt>
      <trkpt lat="43.41449" lon="6.10614">
        <ele>273.60000610352</ele>
        <time>2012-10-16T13:18:42Z</time>
      </trkpt>
      <trkpt lat="43.41452" lon="6.10692">
        <ele>269</ele>
        <time>2012-10-16T13:18:51Z</time>
      </trkpt>
      <trkpt lat="43.41471" lon="6.10779">
        <ele>266.60000610352</ele>
        <time>2012-10-16T13:19:04Z</time>
      </trkpt>
      <trkpt lat="43.41471" lon="6.10793">
        <ele>266.60000610352</ele>
        <time>2012-10-16T13:19:06Z</time>
      </trkpt>
      <trkpt lat="43.41457" lon="6.10843">
        <ele>265.20001220703</ele>
        <time>2012-10-16T13:19:13Z</time>
      </trkpt>
      <trkpt lat="43.4145" lon="6.10854">
        <ele>264.39999389648</ele>
        <time>2012-10-16T13:19:15Z</time>
      </trkpt>
      <trkpt lat="43.41438" lon="6.10858">
        <ele>264</ele>
        <time>2012-10-16T13:19:18Z</time>
      </trkpt>
      <trkpt lat="43.41421" lon="6.10854">
        <ele>262.39999389648</ele>
        <time>2012-10-16T13:19:21Z</time>
      </trkpt>
      <trkpt lat="43.41415" lon="6.10855">
        <ele>261.79998779297</ele>
        <time>2012-10-16T13:19:22Z</time>
      </trkpt>
      <trkpt lat="43.41404" lon="6.10856">
        <ele>260.60000610352</ele>
        <time>2012-10-16T13:19:24Z</time>
      </trkpt>
      <trkpt lat="43.41381" lon="6.10863">
        <ele>257.20001220703</ele>
        <time>2012-10-16T13:19:29Z</time>
      </trkpt>
      <trkpt lat="43.41372" lon="6.10869">
        <ele>255.60000610352</ele>
        <time>2012-10-16T13:19:31Z</time>
      </trkpt>
      <trkpt lat="43.41368" lon="6.10873">
        <ele>254.80000305176</ele>
        <time>2012-10-16T13:19:32Z</time>
      </trkpt>
      <trkpt lat="43.41357" lon="6.10887">
        <ele>250.80000305176</ele>
        <time>2012-10-16T13:19:36Z</time>
      </trkpt>
      <trkpt lat="43.4135" lon="6.10905">
        <ele>246.60000610352</ele>
        <time>2012-10-16T13:19:40Z</time>
      </trkpt>
      <trkpt lat="43.41348" lon="6.1091">
        <ele>245.60000610352</ele>
        <time>2012-10-16T13:19:41Z</time>
      </trkpt>
      <trkpt lat="43.41325" lon="6.10944">
        <ele>239.39999389648</ele>
        <time>2012-10-16T13:19:48Z</time>
      </trkpt>
      <trkpt lat="43.41311" lon="6.10957">
        <ele>237.60000610352</ele>
        <time>2012-10-16T13:19:51Z</time>
      </trkpt>
      <trkpt lat="43.41309" lon="6.10959">
        <ele>237</ele>
        <time>2012-10-16T13:19:52Z</time>
      </trkpt>
      <trkpt lat="43.41304" lon="6.10975">
        <ele>235</ele>
        <time>2012-10-16T13:19:55Z</time>
      </trkpt>
      <trkpt lat="43.41293" lon="6.11006">
        <ele>231.80000305176</ele>
        <time>2012-10-16T13:20:00Z</time>
      </trkpt>
      <trkpt lat="43.41287" lon="6.11052">
        <ele>224.60000610352</ele>
        <time>2012-10-16T13:20:07Z</time>
      </trkpt>
      <trkpt lat="43.4128" lon="6.1106">
        <ele>222.80000305176</ele>
        <time>2012-10-16T13:20:09Z</time>
      </trkpt>
      <trkpt lat="43.41275" lon="6.11063">
        <ele>222</ele>
        <time>2012-10-16T13:20:10Z</time>
      </trkpt>
      <trkpt lat="43.41254" lon="6.11072">
        <ele>218.60000610352</ele>
        <time>2012-10-16T13:20:14Z</time>
      </trkpt>
      <trkpt lat="43.41249" lon="6.11079">
        <ele>217.39999389648</ele>
        <time>2012-10-16T13:20:16Z</time>
      </trkpt>
      <trkpt lat="43.4125" lon="6.11083">
        <ele>217</ele>
        <time>2012-10-16T13:20:17Z</time>
      </trkpt>
      <trkpt lat="43.41253" lon="6.11085">
        <ele>216</ele>
        <time>2012-10-16T13:20:19Z</time>
      </trkpt>
      <trkpt lat="43.41253" lon="6.11085">
        <ele>215.60000610352</ele>
        <time>2012-10-16T13:20:41Z</time>
      </trkpt>
      <trkpt lat="43.41259" lon="6.11089">
        <ele>214.80000305176</ele>
        <time>2012-10-16T13:20:48Z</time>
      </trkpt>
      <trkpt lat="43.41262" lon="6.11091">
        <ele>214.39999389648</ele>
        <time>2012-10-16T13:20:49Z</time>
      </trkpt>
      <trkpt lat="43.41299" lon="6.11103">
        <ele>211.60000610352</ele>
        <time>2012-10-16T13:20:58Z</time>
      </trkpt>
      <trkpt lat="43.41299" lon="6.11133">
        <ele>209.60000610352</ele>
        <time>2012-10-16T13:21:05Z</time>
      </trkpt>
      <trkpt lat="43.41296" lon="6.11157">
        <ele>209.60000610352</ele>
        <time>2012-10-16T13:21:11Z</time>
      </trkpt>
      <trkpt lat="43.41294" lon="6.11173">
        <ele>209.60000610352</ele>
        <time>2012-10-16T13:21:15Z</time>
      </trkpt>
      <trkpt lat="43.41282" lon="6.11237">
        <ele>209.60000610352</ele>
        <time>2012-10-16T13:21:34Z</time>
      </trkpt>
      <trkpt lat="43.41299" lon="6.11268">
        <ele>209.60000610352</ele>
        <time>2012-10-16T13:21:45Z</time>
      </trkpt>
      <trkpt lat="43.41318" lon="6.11301">
        <ele>209.60000610352</ele>
        <time>2012-10-16T13:21:57Z</time>
      </trkpt>
      <trkpt lat="43.41326" lon="6.11307">
        <ele>210.60000610352</ele>
        <time>2012-10-16T13:22:01Z</time>
      </trkpt>
      <trkpt lat="43.41362" lon="6.11321">
        <ele>212</ele>
        <time>2012-10-16T13:22:15Z</time>
      </trkpt>
      <trkpt lat="43.41377" lon="6.11325">
        <ele>212</ele>
        <time>2012-10-16T13:22:22Z</time>
      </trkpt>
      <trkpt lat="43.41383" lon="6.11329">
        <ele>212</ele>
        <time>2012-10-16T13:22:25Z</time>
      </trkpt>
      <trkpt lat="43.41383" lon="6.11333">
        <ele>212</ele>
        <time>2012-10-16T13:22:27Z</time>
      </trkpt>
      <trkpt lat="43.41359" lon="6.11429">
        <ele>216.19999694824</ele>
        <time>2012-10-16T13:22:55Z</time>
      </trkpt>
      <trkpt lat="43.41359" lon="6.11477">
        <ele>218.60000610352</ele>
        <time>2012-10-16T13:23:07Z</time>
      </trkpt>
      <trkpt lat="43.41363" lon="6.11511">
        <ele>218.60000610352</ele>
        <time>2012-10-16T13:23:16Z</time>
      </trkpt>
      <trkpt lat="43.41367" lon="6.11534">
        <ele>218.60000610352</ele>
        <time>2012-10-16T13:23:23Z</time>
      </trkpt>
      <trkpt lat="43.41362" lon="6.11548">
        <ele>218.60000610352</ele>
        <time>2012-10-16T13:23:27Z</time>
      </trkpt>
      <trkpt lat="43.41307" lon="6.11572">
        <ele>218.60000610352</ele>
        <time>2012-10-16T13:23:45Z</time>
      </trkpt>
      <trkpt lat="43.41238" lon="6.11644">
        <ele>218.60000610352</ele>
        <time>2012-10-16T13:24:14Z</time>
      </trkpt>
      <trkpt lat="43.41219" lon="6.11666">
        <ele>218.60000610352</ele>
        <time>2012-10-16T13:24:23Z</time>
      </trkpt>
      <trkpt lat="43.41212" lon="6.11677">
        <ele>218.60000610352</ele>
        <time>2012-10-16T13:24:28Z</time>
      </trkpt>
      <trkpt lat="43.41214" lon="6.11682">
        <ele>219</ele>
        <time>2012-10-16T13:24:30Z</time>
      </trkpt>
      <trkpt lat="43.41245" lon="6.1171">
        <ele>222.80000305176</ele>
        <time>2012-10-16T13:24:47Z</time>
      </trkpt>
      <trkpt lat="43.41261" lon="6.1174">
        <ele>222.80000305176</ele>
        <time>2012-10-16T13:25:01Z</time>
      </trkpt>
      <trkpt lat="43.41266" lon="6.11748">
        <ele>225.19999694824</ele>
        <time>2012-10-16T13:25:05Z</time>
      </trkpt>
      <trkpt lat="43.41268" lon="6.11756">
        <ele>225.19999694824</ele>
        <time>2012-10-16T13:25:08Z</time>
      </trkpt>
      <trkpt lat="43.41265" lon="6.11794">
        <ele>225.19999694824</ele>
        <time>2012-10-16T13:25:20Z</time>
      </trkpt>
      <trkpt lat="43.41245" lon="6.12005">
        <ele>225.19999694824</ele>
        <time>2012-10-16T13:26:01Z</time>
      </trkpt>
      <trkpt lat="43.4125" lon="6.12028">
        <ele>225.19999694824</ele>
        <time>2012-10-16T13:26:06Z</time>
      </trkpt>
      <trkpt lat="43.41262" lon="6.12054">
        <ele>225.19999694824</ele>
        <time>2012-10-16T13:26:16Z</time>
      </trkpt>
      <trkpt lat="43.41268" lon="6.12091">
        <ele>225.19999694824</ele>
        <time>2012-10-16T13:26:29Z</time>
      </trkpt>
      <trkpt lat="43.41275" lon="6.12113">
        <ele>225.19999694824</ele>
        <time>2012-10-16T13:26:36Z</time>
      </trkpt>
      <trkpt lat="43.4128" lon="6.12116">
        <ele>225.19999694824</ele>
        <time>2012-10-16T13:26:41Z</time>
      </trkpt>
      <trkpt lat="43.41282" lon="6.12124">
        <ele>225.19999694824</ele>
        <time>2012-10-16T13:26:53Z</time>
      </trkpt>
      <trkpt lat="43.41286" lon="6.12154">
        <ele>225.19999694824</ele>
        <time>2012-10-16T13:27:17Z</time>
      </trkpt>
      <trkpt lat="43.41291" lon="6.12183">
        <ele>225.19999694824</ele>
        <time>2012-10-16T13:27:28Z</time>
      </trkpt>
      <trkpt lat="43.41257" lon="6.12457">
        <ele>231.80000305176</ele>
        <time>2012-10-16T13:28:53Z</time>
      </trkpt>
      <trkpt lat="43.41257" lon="6.1246">
        <ele>232.19999694824</ele>
        <time>2012-10-16T13:28:54Z</time>
      </trkpt>
      <trkpt lat="43.4127" lon="6.12554">
        <ele>235.60000610352</ele>
        <time>2012-10-16T13:29:24Z</time>
      </trkpt>
      <trkpt lat="43.41269" lon="6.12617">
        <ele>237.60000610352</ele>
        <time>2012-10-16T13:29:43Z</time>
      </trkpt>
      <trkpt lat="43.41259" lon="6.12645">
        <ele>239.80000305176</ele>
        <time>2012-10-16T13:29:54Z</time>
      </trkpt>
      <trkpt lat="43.41236" lon="6.12682">
        <ele>240.19999694824</ele>
        <time>2012-10-16T13:30:10Z</time>
      </trkpt>
      <trkpt lat="43.4122" lon="6.12752">
        <ele>243.80000305176</ele>
        <time>2012-10-16T13:30:36Z</time>
      </trkpt>
      <trkpt lat="43.41196" lon="6.12809">
        <ele>246</ele>
        <time>2012-10-16T13:30:58Z</time>
      </trkpt>
      <trkpt lat="43.41189" lon="6.12825">
        <ele>246.39999389648</ele>
        <time>2012-10-16T13:31:05Z</time>
      </trkpt>
      <trkpt lat="43.41174" lon="6.12879">
        <ele>250.19999694824</ele>
        <time>2012-10-16T13:31:28Z</time>
      </trkpt>
      <trkpt lat="43.41175" lon="6.12894">
        <ele>252</ele>
        <time>2012-10-16T13:31:34Z</time>
      </trkpt>
      <trkpt lat="43.412" lon="6.12949">
        <ele>256.60000610352</ele>
        <time>2012-10-16T13:32:03Z</time>
      </trkpt>
      <trkpt lat="43.41202" lon="6.12976">
        <ele>258.20001220703</ele>
        <time>2012-10-16T13:32:17Z</time>
      </trkpt>
      <trkpt lat="43.41206" lon="6.12992">
        <ele>258.60000610352</ele>
        <time>2012-10-16T13:32:24Z</time>
      </trkpt>
      <trkpt lat="43.41209" lon="6.12999">
        <ele>259.39999389648</ele>
        <time>2012-10-16T13:32:28Z</time>
      </trkpt>
      <trkpt lat="43.41218" lon="6.13012">
        <ele>262.39999389648</ele>
        <time>2012-10-16T13:32:38Z</time>
      </trkpt>
      <trkpt lat="43.41233" lon="6.13028">
        <ele>264.79998779297</ele>
        <time>2012-10-16T13:32:54Z</time>
      </trkpt>
      <trkpt lat="43.41262" lon="6.13041">
        <ele>270.20001220703</ele>
        <time>2012-10-16T13:33:19Z</time>
      </trkpt>
      <trkpt lat="43.41278" lon="6.13044">
        <ele>273.20001220703</ele>
        <time>2012-10-16T13:33:34Z</time>
      </trkpt>
      <trkpt lat="43.41296" lon="6.13054">
        <ele>275.60000610352</ele>
        <time>2012-10-16T13:33:48Z</time>
      </trkpt>
      <trkpt lat="43.41304" lon="6.13055">
        <ele>275.60000610352</ele>
        <time>2012-10-16T13:33:54Z</time>
      </trkpt>
      <trkpt lat="43.41318" lon="6.13047">
        <ele>277.60000610352</ele>
        <time>2012-10-16T13:34:06Z</time>
      </trkpt>
      <trkpt lat="43.41331" lon="6.1303">
        <ele>279.79998779297</ele>
        <time>2012-10-16T13:34:20Z</time>
      </trkpt>
      <trkpt lat="43.41351" lon="6.13014">
        <ele>281.79998779297</ele>
        <time>2012-10-16T13:34:36Z</time>
      </trkpt>
      <trkpt lat="43.41358" lon="6.13002">
        <ele>284</ele>
        <time>2012-10-16T13:34:44Z</time>
      </trkpt>
      <trkpt lat="43.41364" lon="6.12975">
        <ele>284</ele>
        <time>2012-10-16T13:35:02Z</time>
      </trkpt>
      <trkpt lat="43.41364" lon="6.12975">
        <ele>286</ele>
        <time>2012-10-16T13:35:24Z</time>
      </trkpt>
      <trkpt lat="43.41366" lon="6.12952">
        <ele>286</ele>
        <time>2012-10-16T13:36:03Z</time>
      </trkpt>
      <trkpt lat="43.41369" lon="6.12836">
        <ele>286</ele>
        <time>2012-10-16T13:36:36Z</time>
      </trkpt>
      <trkpt lat="43.41397" lon="6.12726">
        <ele>286</ele>
        <time>2012-10-16T13:36:58Z</time>
      </trkpt>
      <trkpt lat="43.41398" lon="6.1272">
        <ele>286</ele>
        <time>2012-10-16T13:36:59Z</time>
      </trkpt>
      <trkpt lat="43.41412" lon="6.12583">
        <ele>284</ele>
        <time>2012-10-16T13:37:19Z</time>
      </trkpt>
      <trkpt lat="43.41422" lon="6.12472">
        <ele>281.79998779297</ele>
        <time>2012-10-16T13:37:36Z</time>
      </trkpt>
      <trkpt lat="43.41449" lon="6.12359">
        <ele>279.60000610352</ele>
        <time>2012-10-16T13:37:53Z</time>
      </trkpt>
      <trkpt lat="43.41472" lon="6.12257">
        <ele>279.60000610352</ele>
        <time>2012-10-16T13:38:10Z</time>
      </trkpt>
      <trkpt lat="43.41479" lon="6.12191">
        <ele>279.60000610352</ele>
        <time>2012-10-16T13:38:21Z</time>
      </trkpt>
      <trkpt lat="43.41485" lon="6.12131">
        <ele>279.60000610352</ele>
        <time>2012-10-16T13:38:31Z</time>
      </trkpt>
      <trkpt lat="43.41498" lon="6.12117">
        <ele>277.20001220703</ele>
        <time>2012-10-16T13:38:36Z</time>
      </trkpt>
      <trkpt lat="43.415" lon="6.12113">
        <ele>276.39999389648</ele>
        <time>2012-10-16T13:38:40Z</time>
      </trkpt>
      <trkpt lat="43.415" lon="6.12113">
        <ele>275.20001220703</ele>
        <time>2012-10-16T13:39:06Z</time>
      </trkpt>
      <trkpt lat="43.41502" lon="6.12106">
        <ele>275.20001220703</ele>
        <time>2012-10-16T13:39:10Z</time>
      </trkpt>
      <trkpt lat="43.41523" lon="6.12071">
        <ele>273</ele>
        <time>2012-10-16T13:39:18Z</time>
      </trkpt>
      <trkpt lat="43.41526" lon="6.12067">
        <ele>272.60000610352</ele>
        <time>2012-10-16T13:39:19Z</time>
      </trkpt>
      <trkpt lat="43.41547" lon="6.12039">
        <ele>268.20001220703</ele>
        <time>2012-10-16T13:39:25Z</time>
      </trkpt>
      <trkpt lat="43.41563" lon="6.12019">
        <ele>264.79998779297</ele>
        <time>2012-10-16T13:39:29Z</time>
      </trkpt>
      <trkpt lat="43.41573" lon="6.12006">
        <ele>262</ele>
        <time>2012-10-16T13:39:32Z</time>
      </trkpt>
      <trkpt lat="43.41583" lon="6.11993">
        <ele>259.39999389648</ele>
        <time>2012-10-16T13:39:35Z</time>
      </trkpt>
      <trkpt lat="43.41613" lon="6.11962">
        <ele>248.80000305176</ele>
        <time>2012-10-16T13:39:47Z</time>
      </trkpt>
      <trkpt lat="43.41652" lon="6.11914">
        <ele>236.60000610352</ele>
        <time>2012-10-16T13:40:00Z</time>
      </trkpt>
      <trkpt lat="43.41657" lon="6.11909">
        <ele>233.60000610352</ele>
        <time>2012-10-16T13:40:03Z</time>
      </trkpt>
      <trkpt lat="43.4167" lon="6.11893">
        <ele>229.60000610352</ele>
        <time>2012-10-16T13:40:08Z</time>
      </trkpt>
      <trkpt lat="43.41675" lon="6.11888">
        <ele>226.60000610352</ele>
        <time>2012-10-16T13:40:11Z</time>
      </trkpt>
      <trkpt lat="43.41689" lon="6.11871">
        <ele>222.19999694824</ele>
        <time>2012-10-16T13:40:17Z</time>
      </trkpt>
      <trkpt lat="43.4169" lon="6.1187">
        <ele>221.60000610352</ele>
        <time>2012-10-16T13:40:18Z</time>
      </trkpt>
      <trkpt lat="43.4169" lon="6.11869">
        <ele>220.39999389648</ele>
        <time>2012-10-16T13:40:20Z</time>
      </trkpt>
      <trkpt lat="43.41691" lon="6.11869">
        <ele>219.19999694824</ele>
        <time>2012-10-16T13:40:22Z</time>
      </trkpt>
      <trkpt lat="43.41691" lon="6.11869">
        <ele>218.60000610352</ele>
        <time>2012-10-16T13:40:25Z</time>
      </trkpt>
      <trkpt lat="43.41693" lon="6.11867">
        <ele>218.60000610352</ele>
        <time>2012-10-16T13:40:31Z</time>
      </trkpt>
      <trkpt lat="43.41693" lon="6.11867">
        <ele>218.60000610352</ele>
        <time>2012-10-16T13:40:42Z</time>
      </trkpt>
      <trkpt lat="43.41703" lon="6.11855">
        <ele>217.60000610352</ele>
        <time>2012-10-16T13:40:47Z</time>
      </trkpt>
      <trkpt lat="43.41705" lon="6.11858">
        <ele>216</ele>
        <time>2012-10-16T13:40:50Z</time>
      </trkpt>
      <trkpt lat="43.41704" lon="6.11878">
        <ele>214.19999694824</ele>
        <time>2012-10-16T13:41:02Z</time>
      </trkpt>
      <trkpt lat="43.41705" lon="6.11894">
        <ele>214.19999694824</ele>
        <time>2012-10-16T13:41:08Z</time>
      </trkpt>
      <trkpt lat="43.41711" lon="6.11926">
        <ele>212.80000305176</ele>
        <time>2012-10-16T13:41:38Z</time>
      </trkpt>
      <trkpt lat="43.41711" lon="6.1193">
        <ele>212</ele>
        <time>2012-10-16T13:41:40Z</time>
      </trkpt>
      <trkpt lat="43.41712" lon="6.11975">
        <ele>212</ele>
        <time>2012-10-16T13:41:52Z</time>
      </trkpt>
      <trkpt lat="43.41712" lon="6.1202">
        <ele>214</ele>
        <time>2012-10-16T13:42:13Z</time>
      </trkpt>
      <trkpt lat="43.41725" lon="6.12034">
        <ele>214</ele>
        <time>2012-10-16T13:42:24Z</time>
      </trkpt>
      <trkpt lat="43.41728" lon="6.12039">
        <ele>213.60000610352</ele>
        <time>2012-10-16T13:42:28Z</time>
      </trkpt>
      <trkpt lat="43.41728" lon="6.12039">
        <ele>212</ele>
        <time>2012-10-16T13:42:48Z</time>
      </trkpt>
      <trkpt lat="43.41728" lon="6.12038">
        <ele>212</ele>
        <time>2012-10-16T13:43:02Z</time>
      </trkpt>
      <trkpt lat="43.41722" lon="6.12031">
        <ele>212</ele>
        <time>2012-10-16T13:43:11Z</time>
      </trkpt>
      <trkpt lat="43.41711" lon="6.12024">
        <ele>214.19999694824</ele>
        <time>2012-10-16T13:43:29Z</time>
      </trkpt>
      <trkpt lat="43.41701" lon="6.12024">
        <ele>214.60000610352</ele>
        <time>2012-10-16T13:43:38Z</time>
      </trkpt>
      <trkpt lat="43.41693" lon="6.12016">
        <ele>216.19999694824</ele>
        <time>2012-10-16T13:43:46Z</time>
      </trkpt>
      <trkpt lat="43.41687" lon="6.12015">
        <ele>217.80000305176</ele>
        <time>2012-10-16T13:43:52Z</time>
      </trkpt>
      <trkpt lat="43.41681" lon="6.12033">
        <ele>220</ele>
        <time>2012-10-16T13:44:04Z</time>
      </trkpt>
      <trkpt lat="43.4168" lon="6.12033">
        <ele>220.39999389648</ele>
        <time>2012-10-16T13:44:23Z</time>
      </trkpt>
      <trkpt lat="43.41681" lon="6.12021">
        <ele>220.39999389648</ele>
        <time>2012-10-16T13:44:54Z</time>
      </trkpt>
      <trkpt lat="43.41677" lon="6.12018">
        <ele>220.39999389648</ele>
        <time>2012-10-16T13:44:59Z</time>
      </trkpt>
      <trkpt lat="43.41676" lon="6.12016">
        <ele>220.39999389648</ele>
        <time>2012-10-16T13:45:04Z</time>
      </trkpt>
      <trkpt lat="43.41669" lon="6.1202">
        <ele>222.60000610352</ele>
        <time>2012-10-16T13:45:19Z</time>
      </trkpt>
      <trkpt lat="43.41663" lon="6.12032">
        <ele>225.39999389648</ele>
        <time>2012-10-16T13:45:34Z</time>
      </trkpt>
      <trkpt lat="43.41663" lon="6.12032">
        <ele>226.60000610352</ele>
        <time>2012-10-16T13:45:44Z</time>
      </trkpt>
      <trkpt lat="43.41664" lon="6.12034">
        <ele>226.60000610352</ele>
        <time>2012-10-16T13:45:51Z</time>
      </trkpt>
      <trkpt lat="43.41669" lon="6.12041">
        <ele>226.60000610352</ele>
        <time>2012-10-16T13:46:01Z</time>
      </trkpt>
      <trkpt lat="43.41664" lon="6.12061">
        <ele>226.60000610352</ele>
        <time>2012-10-16T13:46:37Z</time>
      </trkpt>
      <trkpt lat="43.41665" lon="6.12062">
        <ele>226.60000610352</ele>
        <time>2012-10-16T13:46:43Z</time>
      </trkpt>
      <trkpt lat="43.41667" lon="6.12072">
        <ele>226.60000610352</ele>
        <time>2012-10-16T13:47:03Z</time>
      </trkpt>
      <trkpt lat="43.41668" lon="6.12109">
        <ele>223.19999694824</ele>
        <time>2012-10-16T13:47:20Z</time>
      </trkpt>
      <trkpt lat="43.41662" lon="6.12136">
        <ele>220.19999694824</ele>
        <time>2012-10-16T13:47:27Z</time>
      </trkpt>
      <trkpt lat="43.41663" lon="6.12142">
        <ele>220.19999694824</ele>
        <time>2012-10-16T13:47:29Z</time>
      </trkpt>
      <trkpt lat="43.41664" lon="6.12144">
        <ele>220.19999694824</ele>
        <time>2012-10-16T13:47:30Z</time>
      </trkpt>
      <trkpt lat="43.41669" lon="6.12149">
        <ele>219.80000305176</ele>
        <time>2012-10-16T13:47:35Z</time>
      </trkpt>
      <trkpt lat="43.41669" lon="6.12149">
        <ele>218.19999694824</ele>
        <time>2012-10-16T13:47:59Z</time>
      </trkpt>
      <trkpt lat="43.41673" lon="6.12149">
        <ele>218.19999694824</ele>
        <time>2012-10-16T13:48:02Z</time>
      </trkpt>
      <trkpt lat="43.41678" lon="6.1216">
        <ele>217.39999389648</ele>
        <time>2012-10-16T13:48:11Z</time>
      </trkpt>
      <trkpt lat="43.41687" lon="6.12168">
        <ele>216.19999694824</ele>
        <time>2012-10-16T13:48:18Z</time>
      </trkpt>
      <trkpt lat="43.41687" lon="6.12174">
        <ele>215.39999389648</ele>
        <time>2012-10-16T13:48:22Z</time>
      </trkpt>
      <trkpt lat="43.41683" lon="6.12208">
        <ele>216.39999389648</ele>
        <time>2012-10-16T13:48:40Z</time>
      </trkpt>
      <trkpt lat="43.41697" lon="6.12236">
        <ele>216.39999389648</ele>
        <time>2012-10-16T13:48:50Z</time>
      </trkpt>
      <trkpt lat="43.41698" lon="6.12245">
        <ele>216.39999389648</ele>
        <time>2012-10-16T13:48:54Z</time>
      </trkpt>
      <trkpt lat="43.41707" lon="6.12296">
        <ele>214</ele>
        <time>2012-10-16T13:49:14Z</time>
      </trkpt>
      <trkpt lat="43.41707" lon="6.1231">
        <ele>212.19999694824</ele>
        <time>2012-10-16T13:49:19Z</time>
      </trkpt>
      <trkpt lat="43.41714" lon="6.1233">
        <ele>210.60000610352</ele>
        <time>2012-10-16T13:49:28Z</time>
      </trkpt>
      <trkpt lat="43.41718" lon="6.12333">
        <ele>210</ele>
        <time>2012-10-16T13:49:30Z</time>
      </trkpt>
      <trkpt lat="43.41732" lon="6.12336">
        <ele>209.60000610352</ele>
        <time>2012-10-16T13:49:37Z</time>
      </trkpt>
      <trkpt lat="43.41737" lon="6.12334">
        <ele>208.39999389648</ele>
        <time>2012-10-16T13:49:40Z</time>
      </trkpt>
      <trkpt lat="43.41748" lon="6.12314">
        <ele>207</ele>
        <time>2012-10-16T13:49:49Z</time>
      </trkpt>
      <trkpt lat="43.4183" lon="6.12173">
        <ele>203.39999389648</ele>
        <time>2012-10-16T13:50:29Z</time>
      </trkpt>
      <trkpt lat="43.41864" lon="6.121">
        <ele>199.19999694824</ele>
        <time>2012-10-16T13:50:47Z</time>
      </trkpt>
      <trkpt lat="43.41888" lon="6.12031">
        <ele>199.19999694824</ele>
        <time>2012-10-16T13:51:04Z</time>
      </trkpt>
      <trkpt lat="43.41926" lon="6.11935">
        <ele>201.39999389648</ele>
        <time>2012-10-16T13:51:32Z</time>
      </trkpt>
      <trkpt lat="43.41934" lon="6.11936">
        <ele>201.39999389648</ele>
        <time>2012-10-16T13:51:40Z</time>
      </trkpt>
      <trkpt lat="43.41983" lon="6.11951">
        <ele>199.19999694824</ele>
        <time>2012-10-16T13:51:59Z</time>
      </trkpt>
      <trkpt lat="43.41987" lon="6.11956">
        <ele>199.19999694824</ele>
        <time>2012-10-16T13:52:00Z</time>
      </trkpt>
      <trkpt lat="43.42" lon="6.12">
        <ele>197</ele>
        <time>2012-10-16T13:52:10Z</time>
      </trkpt>
      <trkpt lat="43.42033" lon="6.12052">
        <ele>197</ele>
        <time>2012-10-16T13:52:23Z</time>
      </trkpt>
      <trkpt lat="43.42043" lon="6.12096">
        <ele>197</ele>
        <time>2012-10-16T13:52:34Z</time>
      </trkpt>
      <trkpt lat="43.42048" lon="6.12144">
        <ele>197</ele>
        <time>2012-10-16T13:52:44Z</time>
      </trkpt>
      <trkpt lat="43.42046" lon="6.12168">
        <ele>197</ele>
        <time>2012-10-16T13:52:49Z</time>
      </trkpt>
      <trkpt lat="43.42035" lon="6.12224">
        <ele>199</ele>
        <time>2012-10-16T13:53:03Z</time>
      </trkpt>
      <trkpt lat="43.42035" lon="6.12251">
        <ele>199</ele>
        <time>2012-10-16T13:53:09Z</time>
      </trkpt>
      <trkpt lat="43.42044" lon="6.12286">
        <ele>199</ele>
        <time>2012-10-16T13:53:17Z</time>
      </trkpt>
      <trkpt lat="43.42055" lon="6.12305">
        <ele>199</ele>
        <time>2012-10-16T13:53:22Z</time>
      </trkpt>
      <trkpt lat="43.42074" lon="6.12317">
        <ele>199</ele>
        <time>2012-10-16T13:53:28Z</time>
      </trkpt>
      <trkpt lat="43.4208" lon="6.12325">
        <ele>199</ele>
        <time>2012-10-16T13:53:31Z</time>
      </trkpt>
      <trkpt lat="43.42074" lon="6.12341">
        <ele>199</ele>
        <time>2012-10-16T13:53:35Z</time>
      </trkpt>
      <trkpt lat="43.42039" lon="6.12395">
        <ele>199</ele>
        <time>2012-10-16T13:53:54Z</time>
      </trkpt>
      <trkpt lat="43.42031" lon="6.12413">
        <ele>199</ele>
        <time>2012-10-16T13:54:00Z</time>
      </trkpt>
      <trkpt lat="43.42025" lon="6.12426">
        <ele>199</ele>
        <time>2012-10-16T13:54:05Z</time>
      </trkpt>
      <trkpt lat="43.42019" lon="6.12457">
        <ele>201</ele>
        <time>2012-10-16T13:54:16Z</time>
      </trkpt>
      <trkpt lat="43.42014" lon="6.12487">
        <ele>203</ele>
        <time>2012-10-16T13:54:29Z</time>
      </trkpt>
      <trkpt lat="43.41991" lon="6.12581">
        <ele>208.60000610352</ele>
        <time>2012-10-16T13:55:11Z</time>
      </trkpt>
      <trkpt lat="43.41982" lon="6.12606">
        <ele>209.39999389648</ele>
        <time>2012-10-16T13:55:22Z</time>
      </trkpt>
      <trkpt lat="43.41963" lon="6.12662">
        <ele>213.19999694824</ele>
        <time>2012-10-16T13:55:44Z</time>
      </trkpt>
      <trkpt lat="43.41951" lon="6.12713">
        <ele>215.80000305176</ele>
        <time>2012-10-16T13:56:04Z</time>
      </trkpt>
      <trkpt lat="43.41949" lon="6.12754">
        <ele>218.39999389648</ele>
        <time>2012-10-16T13:56:18Z</time>
      </trkpt>
      <trkpt lat="43.41958" lon="6.1284">
        <ele>224.39999389648</ele>
        <time>2012-10-16T13:56:51Z</time>
      </trkpt>
      <trkpt lat="43.41958" lon="6.12876">
        <ele>224.39999389648</ele>
        <time>2012-10-16T13:57:04Z</time>
      </trkpt>
      <trkpt lat="43.4196" lon="6.12929">
        <ele>226.39999389648</ele>
        <time>2012-10-16T13:57:17Z</time>
      </trkpt>
      <trkpt lat="43.4196" lon="6.12953">
        <ele>226.39999389648</ele>
        <time>2012-10-16T13:57:22Z</time>
      </trkpt>
      <trkpt lat="43.41949" lon="6.13078">
        <ele>226.39999389648</ele>
        <time>2012-10-16T13:57:46Z</time>
      </trkpt>
      <trkpt lat="43.41948" lon="6.13106">
        <ele>226.39999389648</ele>
        <time>2012-10-16T13:57:53Z</time>
      </trkpt>
      <trkpt lat="43.41953" lon="6.13125">
        <ele>226.39999389648</ele>
        <time>2012-10-16T13:57:58Z</time>
      </trkpt>
      <trkpt lat="43.41957" lon="6.13164">
        <ele>228.39999389648</ele>
        <time>2012-10-16T13:58:09Z</time>
      </trkpt>
      <trkpt lat="43.41953" lon="6.13248">
        <ele>231.39999389648</ele>
        <time>2012-10-16T13:58:31Z</time>
      </trkpt>
      <trkpt lat="43.41953" lon="6.13269">
        <ele>232.60000610352</ele>
        <time>2012-10-16T13:58:37Z</time>
      </trkpt>
      <trkpt lat="43.41959" lon="6.13321">
        <ele>236</ele>
        <time>2012-10-16T13:58:57Z</time>
      </trkpt>
      <trkpt lat="43.41959" lon="6.13324">
        <ele>236.39999389648</ele>
        <time>2012-10-16T13:58:58Z</time>
      </trkpt>
      <trkpt lat="43.41968" lon="6.13343">
        <ele>236.80000305176</ele>
        <time>2012-10-16T13:59:05Z</time>
      </trkpt>
      <trkpt lat="43.41973" lon="6.13465">
        <ele>243.39999389648</ele>
        <time>2012-10-16T13:59:51Z</time>
      </trkpt>
      <trkpt lat="43.41975" lon="6.13489">
        <ele>244.60000610352</ele>
        <time>2012-10-16T14:00:01Z</time>
      </trkpt>
      <trkpt lat="43.41982" lon="6.13512">
        <ele>245.39999389648</ele>
        <time>2012-10-16T14:00:10Z</time>
      </trkpt>
      <trkpt lat="43.41988" lon="6.13523">
        <ele>245.39999389648</ele>
        <time>2012-10-16T14:00:15Z</time>
      </trkpt>
      <trkpt lat="43.42007" lon="6.13549">
        <ele>247.39999389648</ele>
        <time>2012-10-16T14:00:28Z</time>
      </trkpt>
      <trkpt lat="43.42017" lon="6.13555">
        <ele>247.39999389648</ele>
        <time>2012-10-16T14:00:33Z</time>
      </trkpt>
      <trkpt lat="43.42039" lon="6.13582">
        <ele>247.39999389648</ele>
        <time>2012-10-16T14:00:45Z</time>
      </trkpt>
      <trkpt lat="43.42049" lon="6.13599">
        <ele>249.60000610352</ele>
        <time>2012-10-16T14:00:51Z</time>
      </trkpt>
      <trkpt lat="43.42067" lon="6.1363">
        <ele>249.60000610352</ele>
        <time>2012-10-16T14:01:05Z</time>
      </trkpt>
      <trkpt lat="43.42089" lon="6.13676">
        <ele>253</ele>
        <time>2012-10-16T14:01:23Z</time>
      </trkpt>
      <trkpt lat="43.42107" lon="6.13731">
        <ele>254.19999694824</ele>
        <time>2012-10-16T14:01:44Z</time>
      </trkpt>
      <trkpt lat="43.42111" lon="6.13739">
        <ele>255.60000610352</ele>
        <time>2012-10-16T14:01:47Z</time>
      </trkpt>
      <trkpt lat="43.42132" lon="6.13776">
        <ele>258</ele>
        <time>2012-10-16T14:02:05Z</time>
      </trkpt>
      <trkpt lat="43.42142" lon="6.13805">
        <ele>260</ele>
        <time>2012-10-16T14:02:19Z</time>
      </trkpt>
      <trkpt lat="43.42155" lon="6.13827">
        <ele>262.20001220703</ele>
        <time>2012-10-16T14:02:30Z</time>
      </trkpt>
      <trkpt lat="43.42179" lon="6.13869">
        <ele>266.39999389648</ele>
        <time>2012-10-16T14:02:56Z</time>
      </trkpt>
      <trkpt lat="43.42186" lon="6.13893">
        <ele>268.60000610352</ele>
        <time>2012-10-16T14:03:10Z</time>
      </trkpt>
      <trkpt lat="43.42199" lon="6.13929">
        <ele>270.60000610352</ele>
        <time>2012-10-16T14:03:29Z</time>
      </trkpt>
      <trkpt lat="43.42205" lon="6.13984">
        <ele>273.79998779297</ele>
        <time>2012-10-16T14:03:54Z</time>
      </trkpt>
      <trkpt lat="43.42205" lon="6.13989">
        <ele>274.60000610352</ele>
        <time>2012-10-16T14:03:56Z</time>
      </trkpt>
      <trkpt lat="43.42204" lon="6.14016">
        <ele>276.79998779297</ele>
        <time>2012-10-16T14:04:10Z</time>
      </trkpt>
      <trkpt lat="43.42187" lon="6.14053">
        <ele>281.20001220703</ele>
        <time>2012-10-16T14:04:36Z</time>
      </trkpt>
      <trkpt lat="43.42186" lon="6.14059">
        <ele>281.20001220703</ele>
        <time>2012-10-16T14:04:39Z</time>
      </trkpt>
      <trkpt lat="43.42173" lon="6.14099">
        <ele>284.39999389648</ele>
        <time>2012-10-16T14:05:00Z</time>
      </trkpt>
      <trkpt lat="43.42154" lon="6.14123">
        <ele>285.60000610352</ele>
        <time>2012-10-16T14:05:14Z</time>
      </trkpt>
      <trkpt lat="43.42143" lon="6.14131">
        <ele>287.20001220703</ele>
        <time>2012-10-16T14:05:34Z</time>
      </trkpt>
      <trkpt lat="43.42142" lon="6.14131">
        <ele>287.20001220703</ele>
        <time>2012-10-16T14:08:11Z</time>
      </trkpt>
      <trkpt lat="43.42134" lon="6.14127">
        <ele>287.20001220703</ele>
        <time>2012-10-16T14:08:16Z</time>
      </trkpt>
      <trkpt lat="43.42114" lon="6.14128">
        <ele>287.20001220703</ele>
        <time>2012-10-16T14:08:26Z</time>
      </trkpt>
      <trkpt lat="43.42032" lon="6.14197">
        <ele>289.79998779297</ele>
        <time>2012-10-16T14:09:07Z</time>
      </trkpt>
      <trkpt lat="43.41981" lon="6.14229">
        <ele>291.39999389648</ele>
        <time>2012-10-16T14:09:28Z</time>
      </trkpt>
      <trkpt lat="43.41958" lon="6.14251">
        <ele>293</ele>
        <time>2012-10-16T14:09:40Z</time>
      </trkpt>
      <trkpt lat="43.41945" lon="6.14273">
        <ele>293.39999389648</ele>
        <time>2012-10-16T14:09:48Z</time>
      </trkpt>
      <trkpt lat="43.41933" lon="6.14397">
        <ele>295.39999389648</ele>
        <time>2012-10-16T14:10:23Z</time>
      </trkpt>
      <trkpt lat="43.41914" lon="6.1448">
        <ele>295.39999389648</ele>
        <time>2012-10-16T14:10:45Z</time>
      </trkpt>
      <trkpt lat="43.41893" lon="6.14533">
        <ele>295.39999389648</ele>
        <time>2012-10-16T14:11:04Z</time>
      </trkpt>
      <trkpt lat="43.41887" lon="6.14552">
        <ele>295.39999389648</ele>
        <time>2012-10-16T14:11:10Z</time>
      </trkpt>
      <trkpt lat="43.41885" lon="6.14581">
        <ele>296.79998779297</ele>
        <time>2012-10-16T14:11:19Z</time>
      </trkpt>
      <trkpt lat="43.41905" lon="6.14657">
        <ele>297.60000610352</ele>
        <time>2012-10-16T14:11:41Z</time>
      </trkpt>
      <trkpt lat="43.41906" lon="6.147">
        <ele>298.79998779297</ele>
        <time>2012-10-16T14:11:54Z</time>
      </trkpt>
      <trkpt lat="43.41907" lon="6.14704">
        <ele>299.60000610352</ele>
        <time>2012-10-16T14:11:55Z</time>
      </trkpt>
      <trkpt lat="43.41901" lon="6.14764">
        <ele>301.60000610352</ele>
        <time>2012-10-16T14:12:13Z</time>
      </trkpt>
      <trkpt lat="43.4192" lon="6.14794">
        <ele>301.60000610352</ele>
        <time>2012-10-16T14:12:24Z</time>
      </trkpt>
      <trkpt lat="43.41968" lon="6.14867">
        <ele>301.60000610352</ele>
        <time>2012-10-16T14:12:47Z</time>
      </trkpt>
      <trkpt lat="43.42009" lon="6.14914">
        <ele>301.60000610352</ele>
        <time>2012-10-16T14:13:07Z</time>
      </trkpt>
      <trkpt lat="43.42026" lon="6.14999">
        <ele>301.60000610352</ele>
        <time>2012-10-16T14:13:30Z</time>
      </trkpt>
      <trkpt lat="43.42027" lon="6.15001">
        <ele>301.60000610352</ele>
        <time>2012-10-16T14:13:31Z</time>
      </trkpt>
      <trkpt lat="43.42035" lon="6.15081">
        <ele>303.60000610352</ele>
        <time>2012-10-16T14:13:51Z</time>
      </trkpt>
      <trkpt lat="43.42062" lon="6.151">
        <ele>303.60000610352</ele>
        <time>2012-10-16T14:14:02Z</time>
      </trkpt>
      <trkpt lat="43.42081" lon="6.15107">
        <ele>303.60000610352</ele>
        <time>2012-10-16T14:14:09Z</time>
      </trkpt>
      <trkpt lat="43.42088" lon="6.15117">
        <ele>303.60000610352</ele>
        <time>2012-10-16T14:14:12Z</time>
      </trkpt>
      <trkpt lat="43.42104" lon="6.15189">
        <ele>303.60000610352</ele>
        <time>2012-10-16T14:14:30Z</time>
      </trkpt>
      <trkpt lat="43.42117" lon="6.15283">
        <ele>305.60000610352</ele>
        <time>2012-10-16T14:14:53Z</time>
      </trkpt>
      <trkpt lat="43.42124" lon="6.15335">
        <ele>305.60000610352</ele>
        <time>2012-10-16T14:15:06Z</time>
      </trkpt>
      <trkpt lat="43.4212" lon="6.15362">
        <ele>305.60000610352</ele>
        <time>2012-10-16T14:15:13Z</time>
      </trkpt>
      <trkpt lat="43.42108" lon="6.15392">
        <ele>305.60000610352</ele>
        <time>2012-10-16T14:15:23Z</time>
      </trkpt>
      <trkpt lat="43.42106" lon="6.15405">
        <ele>305.60000610352</ele>
        <time>2012-10-16T14:15:28Z</time>
      </trkpt>
      <trkpt lat="43.42106" lon="6.15418">
        <ele>305.60000610352</ele>
        <time>2012-10-16T14:15:34Z</time>
      </trkpt>
      <trkpt lat="43.42106" lon="6.15418">
        <ele>307</ele>
        <time>2012-10-16T14:15:42Z</time>
      </trkpt>
      <trkpt lat="43.42106" lon="6.1542">
        <ele>307.79998779297</ele>
        <time>2012-10-16T14:15:44Z</time>
      </trkpt>
      <trkpt lat="43.42105" lon="6.15441">
        <ele>307.79998779297</ele>
        <time>2012-10-16T14:15:53Z</time>
      </trkpt>
      <trkpt lat="43.42107" lon="6.15454">
        <ele>307.79998779297</ele>
        <time>2012-10-16T14:15:57Z</time>
      </trkpt>
      <trkpt lat="43.42109" lon="6.15459">
        <ele>307.79998779297</ele>
        <time>2012-10-16T14:15:59Z</time>
      </trkpt>
      <trkpt lat="43.42126" lon="6.15481">
        <ele>307.79998779297</ele>
        <time>2012-10-16T14:16:10Z</time>
      </trkpt>
      <trkpt lat="43.42129" lon="6.15496">
        <ele>307.79998779297</ele>
        <time>2012-10-16T14:16:15Z</time>
      </trkpt>
      <trkpt lat="43.42144" lon="6.15524">
        <ele>307.79998779297</ele>
        <time>2012-10-16T14:16:27Z</time>
      </trkpt>
      <trkpt lat="43.42157" lon="6.15532">
        <ele>307.79998779297</ele>
        <time>2012-10-16T14:16:33Z</time>
      </trkpt>
      <trkpt lat="43.42212" lon="6.1554">
        <ele>309.79998779297</ele>
        <time>2012-10-16T14:16:57Z</time>
      </trkpt>
      <trkpt lat="43.42247" lon="6.1555">
        <ele>309.79998779297</ele>
        <time>2012-10-16T14:17:13Z</time>
      </trkpt>
      <trkpt lat="43.42263" lon="6.15564">
        <ele>309.79998779297</ele>
        <time>2012-10-16T14:17:22Z</time>
      </trkpt>
      <trkpt lat="43.4227" lon="6.15585">
        <ele>310.20001220703</ele>
        <time>2012-10-16T14:17:31Z</time>
      </trkpt>
      <trkpt lat="43.42271" lon="6.15604">
        <ele>312</ele>
        <time>2012-10-16T14:17:40Z</time>
      </trkpt>
      <trkpt lat="43.42266" lon="6.15621">
        <ele>314.20001220703</ele>
        <time>2012-10-16T14:17:47Z</time>
      </trkpt>
      <trkpt lat="43.4226" lon="6.15628">
        <ele>314.20001220703</ele>
        <time>2012-10-16T14:17:51Z</time>
      </trkpt>
      <trkpt lat="43.42252" lon="6.1564">
        <ele>314.20001220703</ele>
        <time>2012-10-16T14:17:56Z</time>
      </trkpt>
      <trkpt lat="43.42244" lon="6.15662">
        <ele>314.20001220703</ele>
        <time>2012-10-16T14:18:05Z</time>
      </trkpt>
      <trkpt lat="43.4223" lon="6.15689">
        <ele>315.39999389648</ele>
        <time>2012-10-16T14:18:16Z</time>
      </trkpt>
      <trkpt lat="43.42228" lon="6.157">
        <ele>316.20001220703</ele>
        <time>2012-10-16T14:18:20Z</time>
      </trkpt>
      <trkpt lat="43.4223" lon="6.15716">
        <ele>316.20001220703</ele>
        <time>2012-10-16T14:18:26Z</time>
      </trkpt>
      <trkpt lat="43.42225" lon="6.15729">
        <ele>316.20001220703</ele>
        <time>2012-10-16T14:18:31Z</time>
      </trkpt>
      <trkpt lat="43.42224" lon="6.15731">
        <ele>316.20001220703</ele>
        <time>2012-10-16T14:18:32Z</time>
      </trkpt>
      <trkpt lat="43.42225" lon="6.15742">
        <ele>316.20001220703</ele>
        <time>2012-10-16T14:18:45Z</time>
      </trkpt>
      <trkpt lat="43.42222" lon="6.15737">
        <ele>316.20001220703</ele>
        <time>2012-10-16T14:19:35Z</time>
      </trkpt>
      <trkpt lat="43.42216" lon="6.1574">
        <ele>316.20001220703</ele>
        <time>2012-10-16T14:19:39Z</time>
      </trkpt>
      <trkpt lat="43.42215" lon="6.15744">
        <ele>316.20001220703</ele>
        <time>2012-10-16T14:19:42Z</time>
      </trkpt>
      <trkpt lat="43.4222" lon="6.15738">
        <ele>316.20001220703</ele>
        <time>2012-10-16T14:19:46Z</time>
      </trkpt>
      <trkpt lat="43.42226" lon="6.15737">
        <ele>316.20001220703</ele>
        <time>2012-10-16T14:21:03Z</time>
      </trkpt>
      <trkpt lat="43.42223" lon="6.15736">
        <ele>316.20001220703</ele>
        <time>2012-10-16T14:25:48Z</time>
      </trkpt>
      <trkpt lat="43.42221" lon="6.15736">
        <ele>316.20001220703</ele>
        <time>2012-10-16T14:26:07Z</time>
      </trkpt>
      <trkpt lat="43.42213" lon="6.15747">
        <ele>318.20001220703</ele>
        <time>2012-10-16T14:26:17Z</time>
      </trkpt>
      <trkpt lat="43.42218" lon="6.15762">
        <ele>318.20001220703</ele>
        <time>2012-10-16T14:26:26Z</time>
      </trkpt>
      <trkpt lat="43.42218" lon="6.15777">
        <ele>318.20001220703</ele>
        <time>2012-10-16T14:26:33Z</time>
      </trkpt>
      <trkpt lat="43.42204" lon="6.15788">
        <ele>318.20001220703</ele>
        <time>2012-10-16T14:26:45Z</time>
      </trkpt>
      <trkpt lat="43.422" lon="6.15796">
        <ele>318.20001220703</ele>
        <time>2012-10-16T14:26:49Z</time>
      </trkpt>
      <trkpt lat="43.42154" lon="6.16042">
        <ele>318.20001220703</ele>
        <time>2012-10-16T14:28:19Z</time>
      </trkpt>
      <trkpt lat="43.42143" lon="6.16164">
        <ele>318.20001220703</ele>
        <time>2012-10-16T14:28:52Z</time>
      </trkpt>
      <trkpt lat="43.4214" lon="6.1627">
        <ele>320.20001220703</ele>
        <time>2012-10-16T14:29:21Z</time>
      </trkpt>
      <trkpt lat="43.42142" lon="6.16308">
        <ele>320.20001220703</ele>
        <time>2012-10-16T14:29:29Z</time>
      </trkpt>
      <trkpt lat="43.42144" lon="6.16327">
        <ele>319</ele>
        <time>2012-10-16T14:29:33Z</time>
      </trkpt>
      <trkpt lat="43.42161" lon="6.16395">
        <ele>315.39999389648</ele>
        <time>2012-10-16T14:29:42Z</time>
      </trkpt>
      <trkpt lat="43.42162" lon="6.16412">
        <ele>314</ele>
        <time>2012-10-16T14:29:44Z</time>
      </trkpt>
      <trkpt lat="43.4216" lon="6.16462">
        <ele>313</ele>
        <time>2012-10-16T14:29:50Z</time>
      </trkpt>
      <trkpt lat="43.42157" lon="6.16538">
        <ele>311.20001220703</ele>
        <time>2012-10-16T14:30:02Z</time>
      </trkpt>
      <trkpt lat="43.42154" lon="6.16614">
        <ele>315.79998779297</ele>
        <time>2012-10-16T14:30:22Z</time>
      </trkpt>
      <trkpt lat="43.42153" lon="6.16641">
        <ele>315.79998779297</ele>
        <time>2012-10-16T14:30:28Z</time>
      </trkpt>
      <trkpt lat="43.42143" lon="6.16728">
        <ele>315.79998779297</ele>
        <time>2012-10-16T14:30:47Z</time>
      </trkpt>
      <trkpt lat="43.42142" lon="6.16744">
        <ele>315.79998779297</ele>
        <time>2012-10-16T14:30:51Z</time>
      </trkpt>
      <trkpt lat="43.42141" lon="6.16766">
        <ele>315.79998779297</ele>
        <time>2012-10-16T14:30:56Z</time>
      </trkpt>
      <trkpt lat="43.42141" lon="6.16798">
        <ele>318</ele>
        <time>2012-10-16T14:31:03Z</time>
      </trkpt>
      <trkpt lat="43.42139" lon="6.16853">
        <ele>322.79998779297</ele>
        <time>2012-10-16T14:31:20Z</time>
      </trkpt>
      <trkpt lat="43.42137" lon="6.16864">
        <ele>324.39999389648</ele>
        <time>2012-10-16T14:31:24Z</time>
      </trkpt>
      <trkpt lat="43.42133" lon="6.16905">
        <ele>325.79998779297</ele>
        <time>2012-10-16T14:31:38Z</time>
      </trkpt>
      <trkpt lat="43.42083" lon="6.17237">
        <ele>328.79998779297</ele>
        <time>2012-10-16T14:32:40Z</time>
      </trkpt>
      <trkpt lat="43.42068" lon="6.17354">
        <ele>328.79998779297</ele>
        <time>2012-10-16T14:32:56Z</time>
      </trkpt>
      <trkpt lat="43.42048" lon="6.17436">
        <ele>326.60000610352</ele>
        <time>2012-10-16T14:33:06Z</time>
      </trkpt>
      <trkpt lat="43.42023" lon="6.17507">
        <ele>323.79998779297</ele>
        <time>2012-10-16T14:33:14Z</time>
      </trkpt>
      <trkpt lat="43.42022" lon="6.17515">
        <ele>323.39999389648</ele>
        <time>2012-10-16T14:33:15Z</time>
      </trkpt>
      <trkpt lat="43.4202" lon="6.17539">
        <ele>321</ele>
        <time>2012-10-16T14:33:20Z</time>
      </trkpt>
      <trkpt lat="43.42015" lon="6.17542">
        <ele>319.79998779297</ele>
        <time>2012-10-16T14:33:22Z</time>
      </trkpt>
      <trkpt lat="43.41983" lon="6.17544">
        <ele>317.39999389648</ele>
        <time>2012-10-16T14:33:29Z</time>
      </trkpt>
      <trkpt lat="43.41939" lon="6.17546">
        <ele>313.60000610352</ele>
        <time>2012-10-16T14:33:35Z</time>
      </trkpt>
      <trkpt lat="43.41915" lon="6.17538">
        <ele>310.39999389648</ele>
        <time>2012-10-16T14:33:39Z</time>
      </trkpt>
      <trkpt lat="43.41903" lon="6.17537">
        <ele>309</ele>
        <time>2012-10-16T14:33:41Z</time>
      </trkpt>
      <trkpt lat="43.41892" lon="6.17534">
        <ele>307.79998779297</ele>
        <time>2012-10-16T14:33:44Z</time>
      </trkpt>
      <trkpt lat="43.41874" lon="6.17533">
        <ele>307.20001220703</ele>
        <time>2012-10-16T14:33:49Z</time>
      </trkpt>
      <trkpt lat="43.4186" lon="6.17537">
        <ele>305</ele>
        <time>2012-10-16T14:33:53Z</time>
      </trkpt>
      <trkpt lat="43.4185" lon="6.17538">
        <ele>303.79998779297</ele>
        <time>2012-10-16T14:33:55Z</time>
      </trkpt>
      <trkpt lat="43.41819" lon="6.17528">
        <ele>299.79998779297</ele>
        <time>2012-10-16T14:34:01Z</time>
      </trkpt>
      <trkpt lat="43.41815" lon="6.17525">
        <ele>299</ele>
        <time>2012-10-16T14:34:02Z</time>
      </trkpt>
      <trkpt lat="43.41813" lon="6.17518">
        <ele>297</ele>
        <time>2012-10-16T14:34:04Z</time>
      </trkpt>
      <trkpt lat="43.41813" lon="6.17514">
        <ele>296.20001220703</ele>
        <time>2012-10-16T14:34:05Z</time>
      </trkpt>
      <trkpt lat="43.41814" lon="6.17512">
        <ele>296.20001220703</ele>
        <time>2012-10-16T14:34:09Z</time>
      </trkpt>
      <trkpt lat="43.41814" lon="6.17512">
        <ele>296.20001220703</ele>
        <time>2012-10-16T14:34:23Z</time>
      </trkpt>
      <trkpt lat="43.41814" lon="6.1751">
        <ele>296.20001220703</ele>
        <time>2012-10-16T14:35:26Z</time>
      </trkpt>
      <trkpt lat="43.41821" lon="6.17419">
        <ele>293.60000610352</ele>
        <time>2012-10-16T14:35:48Z</time>
      </trkpt>
      <trkpt lat="43.41808" lon="6.17344">
        <ele>292</ele>
        <time>2012-10-16T14:35:59Z</time>
      </trkpt>
      <trkpt lat="43.41808" lon="6.17316">
        <ele>292</ele>
        <time>2012-10-16T14:36:03Z</time>
      </trkpt>
      <trkpt lat="43.41809" lon="6.17303">
        <ele>292</ele>
        <time>2012-10-16T14:36:05Z</time>
      </trkpt>
      <trkpt lat="43.41799" lon="6.17183">
        <ele>288</ele>
        <time>2012-10-16T14:36:20Z</time>
      </trkpt>
      <trkpt lat="43.41788" lon="6.17123">
        <ele>286.20001220703</ele>
        <time>2012-10-16T14:36:27Z</time>
      </trkpt>
      <trkpt lat="43.41787" lon="6.17073">
        <ele>285.39999389648</ele>
        <time>2012-10-16T14:36:33Z</time>
      </trkpt>
      <trkpt lat="43.41787" lon="6.17064">
        <ele>285.39999389648</ele>
        <time>2012-10-16T14:36:34Z</time>
      </trkpt>
      <trkpt lat="43.41797" lon="6.16972">
        <ele>283.39999389648</ele>
        <time>2012-10-16T14:36:46Z</time>
      </trkpt>
      <trkpt lat="43.41793" lon="6.16944">
        <ele>283</ele>
        <time>2012-10-16T14:36:50Z</time>
      </trkpt>
      <trkpt lat="43.41795" lon="6.16798">
        <ele>281</ele>
        <time>2012-10-16T14:37:10Z</time>
      </trkpt>
      <trkpt lat="43.41791" lon="6.16762">
        <ele>279.20001220703</ele>
        <time>2012-10-16T14:37:14Z</time>
      </trkpt>
      <trkpt lat="43.4179" lon="6.16753">
        <ele>279.20001220703</ele>
        <time>2012-10-16T14:37:15Z</time>
      </trkpt>
      <trkpt lat="43.41793" lon="6.16693">
        <ele>277.20001220703</ele>
        <time>2012-10-16T14:37:22Z</time>
      </trkpt>
      <trkpt lat="43.41789" lon="6.16648">
        <ele>276.79998779297</ele>
        <time>2012-10-16T14:37:27Z</time>
      </trkpt>
      <trkpt lat="43.4179" lon="6.16604">
        <ele>274</ele>
        <time>2012-10-16T14:37:32Z</time>
      </trkpt>
      <trkpt lat="43.41784" lon="6.1658">
        <ele>272.79998779297</ele>
        <time>2012-10-16T14:37:35Z</time>
      </trkpt>
      <trkpt lat="43.41779" lon="6.16537">
        <ele>272.39999389648</ele>
        <time>2012-10-16T14:37:40Z</time>
      </trkpt>
      <trkpt lat="43.4178" lon="6.16505">
        <ele>270.79998779297</ele>
        <time>2012-10-16T14:37:44Z</time>
      </trkpt>
      <trkpt lat="43.41786" lon="6.16483">
        <ele>270.20001220703</ele>
        <time>2012-10-16T14:37:48Z</time>
      </trkpt>
      <trkpt lat="43.41782" lon="6.16469">
        <ele>268.20001220703</ele>
        <time>2012-10-16T14:37:52Z</time>
      </trkpt>
      <trkpt lat="43.41777" lon="6.16463">
        <ele>268.20001220703</ele>
        <time>2012-10-16T14:37:55Z</time>
      </trkpt>
      <trkpt lat="43.41769" lon="6.16453">
        <ele>268.20001220703</ele>
        <time>2012-10-16T14:38:00Z</time>
      </trkpt>
      <trkpt lat="43.41769" lon="6.16444">
        <ele>269.79998779297</ele>
        <time>2012-10-16T14:38:04Z</time>
      </trkpt>
      <trkpt lat="43.41769" lon="6.16421">
        <ele>272.20001220703</ele>
        <time>2012-10-16T14:38:15Z</time>
      </trkpt>
      <trkpt lat="43.41767" lon="6.16418">
        <ele>272.20001220703</ele>
        <time>2012-10-16T14:38:17Z</time>
      </trkpt>
      <trkpt lat="43.41765" lon="6.16403">
        <ele>272.60000610352</ele>
        <time>2012-10-16T14:38:22Z</time>
      </trkpt>
      <trkpt lat="43.41768" lon="6.16391">
        <ele>274.39999389648</ele>
        <time>2012-10-16T14:38:26Z</time>
      </trkpt>
      <trkpt lat="43.41783" lon="6.16279">
        <ele>265.79998779297</ele>
        <time>2012-10-16T14:38:46Z</time>
      </trkpt>
      <trkpt lat="43.41782" lon="6.16265">
        <ele>264.39999389648</ele>
        <time>2012-10-16T14:38:48Z</time>
      </trkpt>
      <trkpt lat="43.41799" lon="6.1625">
        <ele>262.39999389648</ele>
        <time>2012-10-16T14:38:54Z</time>
      </trkpt>
      <trkpt lat="43.41801" lon="6.16241">
        <ele>262.39999389648</ele>
        <time>2012-10-16T14:38:56Z</time>
      </trkpt>
      <trkpt lat="43.41804" lon="6.16221">
        <ele>262.39999389648</ele>
        <time>2012-10-16T14:39:00Z</time>
      </trkpt>
      <trkpt lat="43.41803" lon="6.16208">
        <ele>262.39999389648</ele>
        <time>2012-10-16T14:39:09Z</time>
      </trkpt>
      <trkpt lat="43.41802" lon="6.1614">
        <ele>262.39999389648</ele>
        <time>2012-10-16T14:39:29Z</time>
      </trkpt>
      <trkpt lat="43.41796" lon="6.16115">
        <ele>262.39999389648</ele>
        <time>2012-10-16T14:39:33Z</time>
      </trkpt>
      <trkpt lat="43.41787" lon="6.1608">
        <ele>262.39999389648</ele>
        <time>2012-10-16T14:39:44Z</time>
      </trkpt>
      <trkpt lat="43.41785" lon="6.16023">
        <ele>264.60000610352</ele>
        <time>2012-10-16T14:40:02Z</time>
      </trkpt>
      <trkpt lat="43.41786" lon="6.1598">
        <ele>264</ele>
        <time>2012-10-16T14:40:13Z</time>
      </trkpt>
      <trkpt lat="43.4179" lon="6.15965">
        <ele>262.39999389648</ele>
        <time>2012-10-16T14:40:16Z</time>
      </trkpt>
      <trkpt lat="43.41779" lon="6.15938">
        <ele>260.79998779297</ele>
        <time>2012-10-16T14:40:29Z</time>
      </trkpt>
      <trkpt lat="43.41772" lon="6.15922">
        <ele>262.79998779297</ele>
        <time>2012-10-16T14:40:38Z</time>
      </trkpt>
      <trkpt lat="43.41769" lon="6.15904">
        <ele>263.60000610352</ele>
        <time>2012-10-16T14:40:46Z</time>
      </trkpt>
      <trkpt lat="43.41762" lon="6.15867">
        <ele>263.60000610352</ele>
        <time>2012-10-16T14:40:57Z</time>
      </trkpt>
      <trkpt lat="43.41758" lon="6.15845">
        <ele>263.60000610352</ele>
        <time>2012-10-16T14:41:02Z</time>
      </trkpt>
      <trkpt lat="43.41749" lon="6.15787">
        <ele>261.79998779297</ele>
        <time>2012-10-16T14:41:12Z</time>
      </trkpt>
      <trkpt lat="43.41748" lon="6.15781">
        <ele>261.20001220703</ele>
        <time>2012-10-16T14:41:13Z</time>
      </trkpt>
      <trkpt lat="43.41752" lon="6.15742">
        <ele>257.79998779297</ele>
        <time>2012-10-16T14:41:20Z</time>
      </trkpt>
      <trkpt lat="43.41751" lon="6.1572">
        <ele>256.79998779297</ele>
        <time>2012-10-16T14:41:24Z</time>
      </trkpt>
      <trkpt lat="43.41745" lon="6.1568">
        <ele>256</ele>
        <time>2012-10-16T14:41:29Z</time>
      </trkpt>
      <trkpt lat="43.41739" lon="6.15669">
        <ele>255</ele>
        <time>2012-10-16T14:41:31Z</time>
      </trkpt>
      <trkpt lat="43.41732" lon="6.15647">
        <ele>254.19999694824</ele>
        <time>2012-10-16T14:41:34Z</time>
      </trkpt>
      <trkpt lat="43.41729" lon="6.15605">
        <ele>252.60000610352</ele>
        <time>2012-10-16T14:41:40Z</time>
      </trkpt>
      <trkpt lat="43.41731" lon="6.15581">
        <ele>252.60000610352</ele>
        <time>2012-10-16T14:41:44Z</time>
      </trkpt>
      <trkpt lat="43.41705" lon="6.15538">
        <ele>252.19999694824</ele>
        <time>2012-10-16T14:41:52Z</time>
      </trkpt>
      <trkpt lat="43.41688" lon="6.15539">
        <ele>250.19999694824</ele>
        <time>2012-10-16T14:41:56Z</time>
      </trkpt>
      <trkpt lat="43.41673" lon="6.15528">
        <ele>250.19999694824</ele>
        <time>2012-10-16T14:42:01Z</time>
      </trkpt>
      <trkpt lat="43.4167" lon="6.15486">
        <ele>248.60000610352</ele>
        <time>2012-10-16T14:42:09Z</time>
      </trkpt>
      <trkpt lat="43.41657" lon="6.1544">
        <ele>248</ele>
        <time>2012-10-16T14:42:18Z</time>
      </trkpt>
      <trkpt lat="43.41629" lon="6.15396">
        <ele>248</ele>
        <time>2012-10-16T14:42:26Z</time>
      </trkpt>
      <trkpt lat="43.41615" lon="6.15385">
        <ele>246.19999694824</ele>
        <time>2012-10-16T14:42:30Z</time>
      </trkpt>
      <trkpt lat="43.41599" lon="6.15362">
        <ele>245.80000305176</ele>
        <time>2012-10-16T14:42:38Z</time>
      </trkpt>
      <trkpt lat="43.41595" lon="6.15345">
        <ele>245.80000305176</ele>
        <time>2012-10-16T14:42:42Z</time>
      </trkpt>
      <trkpt lat="43.41595" lon="6.1534">
        <ele>245.80000305176</ele>
        <time>2012-10-16T14:42:43Z</time>
      </trkpt>
      <trkpt lat="43.4159" lon="6.15243">
        <ele>245.80000305176</ele>
        <time>2012-10-16T14:42:59Z</time>
      </trkpt>
      <trkpt lat="43.41589" lon="6.15232">
        <ele>245.80000305176</ele>
        <time>2012-10-16T14:43:01Z</time>
      </trkpt>
      <trkpt lat="43.41584" lon="6.152">
        <ele>244</ele>
        <time>2012-10-16T14:43:06Z</time>
      </trkpt>
      <trkpt lat="43.41587" lon="6.15188">
        <ele>243.60000610352</ele>
        <time>2012-10-16T14:43:08Z</time>
      </trkpt>
      <trkpt lat="43.41596" lon="6.15174">
        <ele>243.60000610352</ele>
        <time>2012-10-16T14:43:11Z</time>
      </trkpt>
      <trkpt lat="43.41605" lon="6.1515">
        <ele>243.19999694824</ele>
        <time>2012-10-16T14:43:15Z</time>
      </trkpt>
      <trkpt lat="43.41605" lon="6.15114">
        <ele>241.39999389648</ele>
        <time>2012-10-16T14:43:20Z</time>
      </trkpt>
      <trkpt lat="43.41599" lon="6.15095">
        <ele>241.39999389648</ele>
        <time>2012-10-16T14:43:23Z</time>
      </trkpt>
      <trkpt lat="43.41595" lon="6.15067">
        <ele>241.39999389648</ele>
        <time>2012-10-16T14:43:27Z</time>
      </trkpt>
      <trkpt lat="43.4158" lon="6.15046">
        <ele>239.80000305176</ele>
        <time>2012-10-16T14:43:32Z</time>
      </trkpt>
      <trkpt lat="43.41571" lon="6.15041">
        <ele>239.39999389648</ele>
        <time>2012-10-16T14:43:34Z</time>
      </trkpt>
      <trkpt lat="43.41555" lon="6.15026">
        <ele>239.39999389648</ele>
        <time>2012-10-16T14:43:38Z</time>
      </trkpt>
      <trkpt lat="43.41541" lon="6.15008">
        <ele>239.39999389648</ele>
        <time>2012-10-16T14:43:43Z</time>
      </trkpt>
      <trkpt lat="43.41537" lon="6.14998">
        <ele>239.39999389648</ele>
        <time>2012-10-16T14:43:46Z</time>
      </trkpt>
      <trkpt lat="43.41537" lon="6.1499">
        <ele>239.39999389648</ele>
        <time>2012-10-16T14:43:48Z</time>
      </trkpt>
      <trkpt lat="43.41534" lon="6.14976">
        <ele>240.60000610352</ele>
        <time>2012-10-16T14:43:52Z</time>
      </trkpt>
      <trkpt lat="43.41527" lon="6.14962">
        <ele>242</ele>
        <time>2012-10-16T14:43:58Z</time>
      </trkpt>
      <trkpt lat="43.41525" lon="6.14871">
        <ele>246.39999389648</ele>
        <time>2012-10-16T14:44:27Z</time>
      </trkpt>
      <trkpt lat="43.41526" lon="6.14865">
        <ele>247.80000305176</ele>
        <time>2012-10-16T14:44:29Z</time>
      </trkpt>
      <trkpt lat="43.4153" lon="6.14843">
        <ele>248.19999694824</ele>
        <time>2012-10-16T14:44:36Z</time>
      </trkpt>
      <trkpt lat="43.41568" lon="6.14769">
        <ele>245.80000305176</ele>
        <time>2012-10-16T14:44:50Z</time>
      </trkpt>
      <trkpt lat="43.41571" lon="6.14757">
        <ele>244.60000610352</ele>
        <time>2012-10-16T14:44:52Z</time>
      </trkpt>
      <trkpt lat="43.4157" lon="6.14719">
        <ele>241.80000305176</ele>
        <time>2012-10-16T14:44:58Z</time>
      </trkpt>
      <trkpt lat="43.41565" lon="6.14694">
        <ele>241.80000305176</ele>
        <time>2012-10-16T14:45:02Z</time>
      </trkpt>
      <trkpt lat="43.41557" lon="6.14672">
        <ele>241.39999389648</ele>
        <time>2012-10-16T14:45:06Z</time>
      </trkpt>
      <trkpt lat="43.41539" lon="6.14629">
        <ele>239.80000305176</ele>
        <time>2012-10-16T14:45:14Z</time>
      </trkpt>
      <trkpt lat="43.41547" lon="6.14501">
        <ele>236.80000305176</ele>
        <time>2012-10-16T14:45:30Z</time>
      </trkpt>
      <trkpt lat="43.41547" lon="6.14481">
        <ele>235.60000610352</ele>
        <time>2012-10-16T14:45:32Z</time>
      </trkpt>
      <trkpt lat="43.41544" lon="6.14448">
        <ele>233.39999389648</ele>
        <time>2012-10-16T14:45:36Z</time>
      </trkpt>
      <trkpt lat="43.41555" lon="6.14411">
        <ele>232</ele>
        <time>2012-10-16T14:45:41Z</time>
      </trkpt>
      <trkpt lat="43.41561" lon="6.14372">
        <ele>230</ele>
        <time>2012-10-16T14:45:46Z</time>
      </trkpt>
      <trkpt lat="43.41573" lon="6.14314">
        <ele>228.80000305176</ele>
        <time>2012-10-16T14:45:54Z</time>
      </trkpt>
      <trkpt lat="43.41574" lon="6.14287">
        <ele>228.80000305176</ele>
        <time>2012-10-16T14:45:58Z</time>
      </trkpt>
      <trkpt lat="43.4158" lon="6.14267">
        <ele>228.80000305176</ele>
        <time>2012-10-16T14:46:01Z</time>
      </trkpt>
      <trkpt lat="43.41592" lon="6.14226">
        <ele>227.39999389648</ele>
        <time>2012-10-16T14:46:07Z</time>
      </trkpt>
      <trkpt lat="43.41583" lon="6.14168">
        <ele>226.60000610352</ele>
        <time>2012-10-16T14:46:16Z</time>
      </trkpt>
      <trkpt lat="43.41587" lon="6.14106">
        <ele>228.60000610352</ele>
        <time>2012-10-16T14:46:27Z</time>
      </trkpt>
      <trkpt lat="43.416" lon="6.14079">
        <ele>228.60000610352</ele>
        <time>2012-10-16T14:46:32Z</time>
      </trkpt>
      <trkpt lat="43.41625" lon="6.14052">
        <ele>227.60000610352</ele>
        <time>2012-10-16T14:46:37Z</time>
      </trkpt>
      <trkpt lat="43.41634" lon="6.14039">
        <ele>226.60000610352</ele>
        <time>2012-10-16T14:46:39Z</time>
      </trkpt>
      <trkpt lat="43.41671" lon="6.13984">
        <ele>223.80000305176</ele>
        <time>2012-10-16T14:46:48Z</time>
      </trkpt>
      <trkpt lat="43.41702" lon="6.1395">
        <ele>223.39999389648</ele>
        <time>2012-10-16T14:46:55Z</time>
      </trkpt>
      <trkpt lat="43.41706" lon="6.13944">
        <ele>222.39999389648</ele>
        <time>2012-10-16T14:46:56Z</time>
      </trkpt>
      <trkpt lat="43.41713" lon="6.13932">
        <ele>221.39999389648</ele>
        <time>2012-10-16T14:46:58Z</time>
      </trkpt>
      <trkpt lat="43.41745" lon="6.13891">
        <ele>221.39999389648</ele>
        <time>2012-10-16T14:47:06Z</time>
      </trkpt>
      <trkpt lat="43.41778" lon="6.13776">
        <ele>221.39999389648</ele>
        <time>2012-10-16T14:47:28Z</time>
      </trkpt>
      <trkpt lat="43.4179" lon="6.13767">
        <ele>221.39999389648</ele>
        <time>2012-10-16T14:47:31Z</time>
      </trkpt>
      <trkpt lat="43.41797" lon="6.13749">
        <ele>221.39999389648</ele>
        <time>2012-10-16T14:47:34Z</time>
      </trkpt>
      <trkpt lat="43.41808" lon="6.13677">
        <ele>219</ele>
        <time>2012-10-16T14:47:44Z</time>
      </trkpt>
      <trkpt lat="43.41828" lon="6.13645">
        <ele>217.39999389648</ele>
        <time>2012-10-16T14:47:50Z</time>
      </trkpt>
      <trkpt lat="43.41835" lon="6.13604">
        <ele>217.39999389648</ele>
        <time>2012-10-16T14:47:56Z</time>
      </trkpt>
      <trkpt lat="43.41848" lon="6.1358">
        <ele>215.80000305176</ele>
        <time>2012-10-16T14:48:01Z</time>
      </trkpt>
      <trkpt lat="43.41861" lon="6.13557">
        <ele>215.39999389648</ele>
        <time>2012-10-16T14:48:06Z</time>
      </trkpt>
      <trkpt lat="43.41874" lon="6.13478">
        <ele>215.39999389648</ele>
        <time>2012-10-16T14:48:17Z</time>
      </trkpt>
      <trkpt lat="43.41885" lon="6.1344">
        <ele>215.39999389648</ele>
        <time>2012-10-16T14:48:22Z</time>
      </trkpt>
      <trkpt lat="43.41891" lon="6.13379">
        <ele>213.60000610352</ele>
        <time>2012-10-16T14:48:30Z</time>
      </trkpt>
      <trkpt lat="43.41891" lon="6.13366">
        <ele>213.19999694824</ele>
        <time>2012-10-16T14:48:32Z</time>
      </trkpt>
      <trkpt lat="43.41878" lon="6.13332">
        <ele>213.19999694824</ele>
        <time>2012-10-16T14:48:38Z</time>
      </trkpt>
      <trkpt lat="43.41882" lon="6.13303">
        <ele>213.19999694824</ele>
        <time>2012-10-16T14:48:43Z</time>
      </trkpt>
      <trkpt lat="43.41874" lon="6.13266">
        <ele>211.80000305176</ele>
        <time>2012-10-16T14:48:50Z</time>
      </trkpt>
      <trkpt lat="43.41883" lon="6.13206">
        <ele>211</ele>
        <time>2012-10-16T14:49:01Z</time>
      </trkpt>
      <trkpt lat="43.41882" lon="6.13085">
        <ele>211</ele>
        <time>2012-10-16T14:49:19Z</time>
      </trkpt>
      <trkpt lat="43.41885" lon="6.13051">
        <ele>211</ele>
        <time>2012-10-16T14:49:24Z</time>
      </trkpt>
      <trkpt lat="43.41898" lon="6.13006">
        <ele>208.80000305176</ele>
        <time>2012-10-16T14:49:30Z</time>
      </trkpt>
      <trkpt lat="43.41899" lon="6.12974">
        <ele>208.39999389648</ele>
        <time>2012-10-16T14:49:34Z</time>
      </trkpt>
      <trkpt lat="43.41908" lon="6.12953">
        <ele>206.80000305176</ele>
        <time>2012-10-16T14:49:38Z</time>
      </trkpt>
      <trkpt lat="43.41914" lon="6.12887">
        <ele>206.80000305176</ele>
        <time>2012-10-16T14:49:48Z</time>
      </trkpt>
      <trkpt lat="43.41916" lon="6.12841">
        <ele>206.19999694824</ele>
        <time>2012-10-16T14:49:54Z</time>
      </trkpt>
      <trkpt lat="43.41917" lon="6.12834">
        <ele>205.80000305176</ele>
        <time>2012-10-16T14:49:55Z</time>
      </trkpt>
      <trkpt lat="43.41914" lon="6.12802">
        <ele>204.60000610352</ele>
        <time>2012-10-16T14:49:59Z</time>
      </trkpt>
      <trkpt lat="43.41917" lon="6.12727">
        <ele>204.60000610352</ele>
        <time>2012-10-16T14:50:09Z</time>
      </trkpt>
      <trkpt lat="43.41973" lon="6.12588">
        <ele>202.39999389648</ele>
        <time>2012-10-16T14:50:30Z</time>
      </trkpt>
      <trkpt lat="43.41976" lon="6.12555">
        <ele>202.39999389648</ele>
        <time>2012-10-16T14:50:34Z</time>
      </trkpt>
      <trkpt lat="43.41983" lon="6.12541">
        <ele>202.39999389648</ele>
        <time>2012-10-16T14:50:36Z</time>
      </trkpt>
      <trkpt lat="43.42011" lon="6.1249">
        <ele>202.39999389648</ele>
        <time>2012-10-16T14:50:45Z</time>
      </trkpt>
      <trkpt lat="43.42017" lon="6.12452">
        <ele>201.19999694824</ele>
        <time>2012-10-16T14:50:50Z</time>
      </trkpt>
      <trkpt lat="43.42022" lon="6.12442">
        <ele>200.19999694824</ele>
        <time>2012-10-16T14:50:52Z</time>
      </trkpt>
      <trkpt lat="43.42022" lon="6.12439">
        <ele>199.80000305176</ele>
        <time>2012-10-16T14:50:57Z</time>
      </trkpt>
      <trkpt lat="43.42022" lon="6.12439">
        <ele>198.19999694824</ele>
        <time>2012-10-16T14:51:13Z</time>
      </trkpt>
      <trkpt lat="43.42028" lon="6.12421">
        <ele>198.19999694824</ele>
        <time>2012-10-16T14:51:23Z</time>
      </trkpt>
      <trkpt lat="43.4204" lon="6.12398">
        <ele>198.19999694824</ele>
        <time>2012-10-16T14:52:56Z</time>
      </trkpt>
      <trkpt lat="43.4204" lon="6.12398">
        <ele>196.19999694824</ele>
        <time>2012-10-16T14:53:27Z</time>
      </trkpt>
      <trkpt lat="43.4204" lon="6.12397">
        <ele>196.19999694824</ele>
        <time>2012-10-16T14:53:35Z</time>
      </trkpt>
      <trkpt lat="43.42048" lon="6.12381">
        <ele>196.19999694824</ele>
        <time>2012-10-16T14:53:56Z</time>
      </trkpt>
      <trkpt lat="43.42079" lon="6.12335">
        <ele>196.19999694824</ele>
        <time>2012-10-16T14:54:11Z</time>
      </trkpt>
      <trkpt lat="43.4208" lon="6.12329">
        <ele>196.19999694824</ele>
        <time>2012-10-16T14:54:13Z</time>
      </trkpt>
      <trkpt lat="43.42063" lon="6.12315">
        <ele>196.19999694824</ele>
        <time>2012-10-16T14:54:21Z</time>
      </trkpt>
      <trkpt lat="43.42047" lon="6.12294">
        <ele>196.19999694824</ele>
        <time>2012-10-16T14:54:28Z</time>
      </trkpt>
      <trkpt lat="43.42038" lon="6.12264">
        <ele>196.19999694824</ele>
        <time>2012-10-16T14:54:36Z</time>
      </trkpt>
      <trkpt lat="43.42032" lon="6.12237">
        <ele>196.19999694824</ele>
        <time>2012-10-16T14:54:43Z</time>
      </trkpt>
      <trkpt lat="43.42044" lon="6.1216">
        <ele>196.19999694824</ele>
        <time>2012-10-16T14:55:00Z</time>
      </trkpt>
      <trkpt lat="43.42039" lon="6.12102">
        <ele>196.19999694824</ele>
        <time>2012-10-16T14:55:12Z</time>
      </trkpt>
      <trkpt lat="43.42036" lon="6.12072">
        <ele>196.19999694824</ele>
        <time>2012-10-16T14:55:19Z</time>
      </trkpt>
      <trkpt lat="43.42026" lon="6.12041">
        <ele>195.80000305176</ele>
        <time>2012-10-16T14:55:25Z</time>
      </trkpt>
      <trkpt lat="43.42001" lon="6.11998">
        <ele>194</ele>
        <time>2012-10-16T14:55:34Z</time>
      </trkpt>
      <trkpt lat="43.41998" lon="6.11984">
        <ele>194</ele>
        <time>2012-10-16T14:55:37Z</time>
      </trkpt>
      <trkpt lat="43.42001" lon="6.11959">
        <ele>194</ele>
        <time>2012-10-16T14:55:42Z</time>
      </trkpt>
      <trkpt lat="43.4201" lon="6.11904">
        <ele>194</ele>
        <time>2012-10-16T14:55:53Z</time>
      </trkpt>
      <trkpt lat="43.42017" lon="6.11768">
        <ele>194</ele>
        <time>2012-10-16T14:56:19Z</time>
      </trkpt>
      <trkpt lat="43.42013" lon="6.11674">
        <ele>194</ele>
        <time>2012-10-16T14:56:38Z</time>
      </trkpt>
      <trkpt lat="43.41999" lon="6.11561">
        <ele>194</ele>
        <time>2012-10-16T14:57:01Z</time>
      </trkpt>
      <trkpt lat="43.42001" lon="6.11533">
        <ele>194</ele>
        <time>2012-10-16T14:57:07Z</time>
      </trkpt>
      <trkpt lat="43.42008" lon="6.1152">
        <ele>194</ele>
        <time>2012-10-16T14:57:11Z</time>
      </trkpt>
      <trkpt lat="43.42047" lon="6.11481">
        <ele>194</ele>
        <time>2012-10-16T14:57:24Z</time>
      </trkpt>
      <trkpt lat="43.4206" lon="6.11462">
        <ele>194</ele>
        <time>2012-10-16T14:57:30Z</time>
      </trkpt>
      <trkpt lat="43.42073" lon="6.11418">
        <ele>194</ele>
        <time>2012-10-16T14:57:43Z</time>
      </trkpt>
      <trkpt lat="43.42076" lon="6.11414">
        <ele>194</ele>
        <time>2012-10-16T14:57:47Z</time>
      </trkpt>
      <trkpt lat="43.42076" lon="6.11406">
        <ele>194</ele>
        <time>2012-10-16T14:57:50Z</time>
      </trkpt>
      <trkpt lat="43.42019" lon="6.11301">
        <ele>194</ele>
        <time>2012-10-16T14:58:17Z</time>
      </trkpt>
      <trkpt lat="43.41961" lon="6.11221">
        <ele>194</ele>
        <time>2012-10-16T14:58:35Z</time>
      </trkpt>
      <trkpt lat="43.4194" lon="6.11184">
        <ele>194</ele>
        <time>2012-10-16T14:58:42Z</time>
      </trkpt>
      <trkpt lat="43.41924" lon="6.11146">
        <ele>194</ele>
        <time>2012-10-16T14:58:49Z</time>
      </trkpt>
      <trkpt lat="43.41917" lon="6.11104">
        <ele>194</ele>
        <time>2012-10-16T14:58:56Z</time>
      </trkpt>
      <trkpt lat="43.41919" lon="6.11079">
        <ele>194</ele>
        <time>2012-10-16T14:59:00Z</time>
      </trkpt>
      <trkpt lat="43.41925" lon="6.11015">
        <ele>194</ele>
        <time>2012-10-16T14:59:10Z</time>
      </trkpt>
      <trkpt lat="43.41924" lon="6.10986">
        <ele>194.60000610352</ele>
        <time>2012-10-16T14:59:15Z</time>
      </trkpt>
      <trkpt lat="43.41904" lon="6.10899">
        <ele>196.19999694824</ele>
        <time>2012-10-16T14:59:29Z</time>
      </trkpt>
      <trkpt lat="43.41902" lon="6.10866">
        <ele>196.19999694824</ele>
        <time>2012-10-16T14:59:34Z</time>
      </trkpt>
      <trkpt lat="43.4192" lon="6.10739">
        <ele>196.19999694824</ele>
        <time>2012-10-16T14:59:54Z</time>
      </trkpt>
      <trkpt lat="43.41966" lon="6.10601">
        <ele>196.19999694824</ele>
        <time>2012-10-16T15:00:17Z</time>
      </trkpt>
      <trkpt lat="43.41987" lon="6.10536">
        <ele>196.19999694824</ele>
        <time>2012-10-16T15:00:30Z</time>
      </trkpt>
      <trkpt lat="43.41994" lon="6.10535">
        <ele>198</ele>
        <time>2012-10-16T15:00:34Z</time>
      </trkpt>
      <trkpt lat="43.41996" lon="6.10545">
        <ele>198.39999389648</ele>
        <time>2012-10-16T15:00:49Z</time>
      </trkpt>
      <trkpt lat="43.41997" lon="6.10547">
        <ele>198.39999389648</ele>
        <time>2012-10-16T15:00:54Z</time>
      </trkpt>
      <trkpt lat="43.41994" lon="6.10548">
        <ele>198.39999389648</ele>
        <time>2012-10-16T15:01:21Z</time>
      </trkpt>
      <trkpt lat="43.41989" lon="6.10529">
        <ele>198.39999389648</ele>
        <time>2012-10-16T15:01:27Z</time>
      </trkpt>
      <trkpt lat="43.41987" lon="6.10498">
        <ele>198.39999389648</ele>
        <time>2012-10-16T15:01:35Z</time>
      </trkpt>
      <trkpt lat="43.4199" lon="6.10421">
        <ele>198.39999389648</ele>
        <time>2012-10-16T15:01:50Z</time>
      </trkpt>
      <trkpt lat="43.42009" lon="6.10297">
        <ele>198.39999389648</ele>
        <time>2012-10-16T15:02:12Z</time>
      </trkpt>
      <trkpt lat="43.42035" lon="6.10095">
        <ele>200.39999389648</ele>
        <time>2012-10-16T15:02:47Z</time>
      </trkpt>
      <trkpt lat="43.42043" lon="6.10048">
        <ele>200.39999389648</ele>
        <time>2012-10-16T15:02:55Z</time>
      </trkpt>
      <trkpt lat="43.42061" lon="6.09955">
        <ele>200.39999389648</ele>
        <time>2012-10-16T15:03:11Z</time>
      </trkpt>
      <trkpt lat="43.42083" lon="6.09895">
        <ele>200.39999389648</ele>
        <time>2012-10-16T15:03:21Z</time>
      </trkpt>
      <trkpt lat="43.4209" lon="6.09855">
        <ele>200.39999389648</ele>
        <time>2012-10-16T15:03:27Z</time>
      </trkpt>
      <trkpt lat="43.42091" lon="6.098">
        <ele>200.39999389648</ele>
        <time>2012-10-16T15:03:35Z</time>
      </trkpt>
      <trkpt lat="43.42079" lon="6.09742">
        <ele>200.39999389648</ele>
        <time>2012-10-16T15:03:43Z</time>
      </trkpt>
      <trkpt lat="43.42067" lon="6.09717">
        <ele>200.39999389648</ele>
        <time>2012-10-16T15:03:47Z</time>
      </trkpt>
      <trkpt lat="43.42042" lon="6.09687">
        <ele>200.39999389648</ele>
        <time>2012-10-16T15:03:53Z</time>
      </trkpt>
      <trkpt lat="43.42012" lon="6.09667">
        <ele>200.39999389648</ele>
        <time>2012-10-16T15:03:59Z</time>
      </trkpt>
      <trkpt lat="43.41977" lon="6.09659">
        <ele>200.39999389648</ele>
        <time>2012-10-16T15:04:05Z</time>
      </trkpt>
      <trkpt lat="43.41861" lon="6.09647">
        <ele>200.39999389648</ele>
        <time>2012-10-16T15:04:26Z</time>
      </trkpt>
      <trkpt lat="43.41828" lon="6.09638">
        <ele>200.39999389648</ele>
        <time>2012-10-16T15:04:32Z</time>
      </trkpt>
      <trkpt lat="43.41811" lon="6.09618">
        <ele>200.39999389648</ele>
        <time>2012-10-16T15:04:36Z</time>
      </trkpt>
      <trkpt lat="43.41766" lon="6.09523">
        <ele>200.39999389648</ele>
        <time>2012-10-16T15:04:51Z</time>
      </trkpt>
      <trkpt lat="43.41732" lon="6.09381">
        <ele>200.39999389648</ele>
        <time>2012-10-16T15:05:11Z</time>
      </trkpt>
      <trkpt lat="43.41717" lon="6.09309">
        <ele>200.39999389648</ele>
        <time>2012-10-16T15:05:23Z</time>
      </trkpt>
      <trkpt lat="43.41712" lon="6.09303">
        <ele>200.39999389648</ele>
        <time>2012-10-16T15:05:25Z</time>
      </trkpt>
      <trkpt lat="43.41668" lon="6.09311">
        <ele>200.39999389648</ele>
        <time>2012-10-16T15:05:36Z</time>
      </trkpt>
      <trkpt lat="43.41601" lon="6.0933">
        <ele>198.39999389648</ele>
        <time>2012-10-16T15:05:52Z</time>
      </trkpt>
      <trkpt lat="43.4159" lon="6.09326">
        <ele>199</ele>
        <time>2012-10-16T15:05:56Z</time>
      </trkpt>
      <trkpt lat="43.41589" lon="6.09291">
        <ele>200.60000610352</ele>
        <time>2012-10-16T15:06:07Z</time>
      </trkpt>
      <trkpt lat="43.41591" lon="6.09265">
        <ele>201.39999389648</ele>
        <time>2012-10-16T15:06:14Z</time>
      </trkpt>
      <trkpt lat="43.41595" lon="6.09193">
        <ele>202.60000610352</ele>
        <time>2012-10-16T15:06:32Z</time>
      </trkpt>
      <trkpt lat="43.41595" lon="6.0918">
        <ele>202.60000610352</ele>
        <time>2012-10-16T15:06:35Z</time>
      </trkpt>
      <trkpt lat="43.41593" lon="6.09139">
        <ele>202.60000610352</ele>
        <time>2012-10-16T15:06:45Z</time>
      </trkpt>
      <trkpt lat="43.41594" lon="6.09076">
        <ele>201.80000305176</ele>
        <time>2012-10-16T15:07:01Z</time>
      </trkpt>
      <trkpt lat="43.41589" lon="6.09026">
        <ele>200.60000610352</ele>
        <time>2012-10-16T15:07:12Z</time>
      </trkpt>
      <trkpt lat="43.41579" lon="6.09">
        <ele>200.60000610352</ele>
        <time>2012-10-16T15:07:20Z</time>
      </trkpt>
      <trkpt lat="43.41578" lon="6.0898">
        <ele>200.60000610352</ele>
        <time>2012-10-16T15:07:25Z</time>
      </trkpt>
      <trkpt lat="43.41583" lon="6.08958">
        <ele>200.60000610352</ele>
        <time>2012-10-16T15:07:31Z</time>
      </trkpt>
      <trkpt lat="43.41608" lon="6.08941">
        <ele>200.60000610352</ele>
        <time>2012-10-16T15:07:39Z</time>
      </trkpt>
      <trkpt lat="43.4161" lon="6.08937">
        <ele>200.60000610352</ele>
        <time>2012-10-16T15:07:40Z</time>
      </trkpt>
      <trkpt lat="43.41597" lon="6.08864">
        <ele>198.60000610352</ele>
        <time>2012-10-16T15:07:56Z</time>
      </trkpt>
      <trkpt lat="43.41587" lon="6.08809">
        <ele>198.60000610352</ele>
        <time>2012-10-16T15:08:11Z</time>
      </trkpt>
      <trkpt lat="43.41581" lon="6.088">
        <ele>198.60000610352</ele>
        <time>2012-10-16T15:08:15Z</time>
      </trkpt>
      <trkpt lat="43.41547" lon="6.08829">
        <ele>198.60000610352</ele>
        <time>2012-10-16T15:08:29Z</time>
      </trkpt>
      <trkpt lat="43.41529" lon="6.08843">
        <ele>198.60000610352</ele>
        <time>2012-10-16T15:08:36Z</time>
      </trkpt>
      <trkpt lat="43.41518" lon="6.08839">
        <ele>198.60000610352</ele>
        <time>2012-10-16T15:08:41Z</time>
      </trkpt>
      <trkpt lat="43.41488" lon="6.0882">
        <ele>200.80000305176</ele>
        <time>2012-10-16T15:08:54Z</time>
      </trkpt>
      <trkpt lat="43.41475" lon="6.08804">
        <ele>200.80000305176</ele>
        <time>2012-10-16T15:09:00Z</time>
      </trkpt>
      <trkpt lat="43.41423" lon="6.0859">
        <ele>200.80000305176</ele>
        <time>2012-10-16T15:09:42Z</time>
      </trkpt>
      <trkpt lat="43.41412" lon="6.0856">
        <ele>200.80000305176</ele>
        <time>2012-10-16T15:09:49Z</time>
      </trkpt>
      <trkpt lat="43.41385" lon="6.08485">
        <ele>202.80000305176</ele>
        <time>2012-10-16T15:10:06Z</time>
      </trkpt>
      <trkpt lat="43.41355" lon="6.08418">
        <ele>202.80000305176</ele>
        <time>2012-10-16T15:10:22Z</time>
      </trkpt>
      <trkpt lat="43.41299" lon="6.08291">
        <ele>202.80000305176</ele>
        <time>2012-10-16T15:10:51Z</time>
      </trkpt>
      <trkpt lat="43.41269" lon="6.08189">
        <ele>202.80000305176</ele>
        <time>2012-10-16T15:11:11Z</time>
      </trkpt>
      <trkpt lat="43.41254" lon="6.08149">
        <ele>202.80000305176</ele>
        <time>2012-10-16T15:11:19Z</time>
      </trkpt>
      <trkpt lat="43.41211" lon="6.08064">
        <ele>202.80000305176</ele>
        <time>2012-10-16T15:11:38Z</time>
      </trkpt>
      <trkpt lat="43.41144" lon="6.07997">
        <ele>205</ele>
        <time>2012-10-16T15:12:09Z</time>
      </trkpt>
      <trkpt lat="43.41129" lon="6.07988">
        <ele>205.80000305176</ele>
        <time>2012-10-16T15:12:15Z</time>
      </trkpt>
      <trkpt lat="43.41124" lon="6.07985">
        <ele>206.80000305176</ele>
        <time>2012-10-16T15:12:17Z</time>
      </trkpt>
      <trkpt lat="43.41114" lon="6.07988">
        <ele>207.19999694824</ele>
        <time>2012-10-16T15:12:21Z</time>
      </trkpt>
      <trkpt lat="43.41102" lon="6.07996">
        <ele>209</ele>
        <time>2012-10-16T15:12:26Z</time>
      </trkpt>
      <trkpt lat="43.41079" lon="6.08027">
        <ele>212</ele>
        <time>2012-10-16T15:12:40Z</time>
      </trkpt>
      <trkpt lat="43.41074" lon="6.08031">
        <ele>213.19999694824</ele>
        <time>2012-10-16T15:12:43Z</time>
      </trkpt>
      <trkpt lat="43.41073" lon="6.08032">
        <ele>213.60000610352</ele>
        <time>2012-10-16T15:12:44Z</time>
      </trkpt>
      <trkpt lat="43.41073" lon="6.08032">
        <ele>213.60000610352</ele>
        <time>2012-10-16T15:13:00Z</time>
      </trkpt>
      <trkpt lat="43.41063" lon="6.0804">
        <ele>213.60000610352</ele>
        <time>2012-10-16T15:13:37Z</time>
      </trkpt>
      <trkpt lat="43.41034" lon="6.08055">
        <ele>212.80000305176</ele>
        <time>2012-10-16T15:13:44Z</time>
      </trkpt>
      <trkpt lat="43.40966" lon="6.08101">
        <ele>211.39999389648</ele>
        <time>2012-10-16T15:14:01Z</time>
      </trkpt>
      <trkpt lat="43.40944" lon="6.08116">
        <ele>211.39999389648</ele>
        <time>2012-10-16T15:14:07Z</time>
      </trkpt>
      <trkpt lat="43.40876" lon="6.08147">
        <ele>211.39999389648</ele>
        <time>2012-10-16T15:14:20Z</time>
      </trkpt>
      <trkpt lat="43.4087" lon="6.08153">
        <ele>211.39999389648</ele>
        <time>2012-10-16T15:14:21Z</time>
      </trkpt>
      <trkpt lat="43.40858" lon="6.08201">
        <ele>211.39999389648</ele>
        <time>2012-10-16T15:14:28Z</time>
      </trkpt>
      <trkpt lat="43.40802" lon="6.08291">
        <ele>211.39999389648</ele>
        <time>2012-10-16T15:14:50Z</time>
      </trkpt>
      <trkpt lat="43.40763" lon="6.08366">
        <ele>211.39999389648</ele>
        <time>2012-10-16T15:15:08Z</time>
      </trkpt>
      <trkpt lat="43.40725" lon="6.0837">
        <ele>211.39999389648</ele>
        <time>2012-10-16T15:15:19Z</time>
      </trkpt>
      <trkpt lat="43.40701" lon="6.08361">
        <ele>211.39999389648</ele>
        <time>2012-10-16T15:15:25Z</time>
      </trkpt>
      <trkpt lat="43.40673" lon="6.08356">
        <ele>211.39999389648</ele>
        <time>2012-10-16T15:15:32Z</time>
      </trkpt>
      <trkpt lat="43.40652" lon="6.08363">
        <ele>211.39999389648</ele>
        <time>2012-10-16T15:15:38Z</time>
      </trkpt>
      <trkpt lat="43.40622" lon="6.0838">
        <ele>211.39999389648</ele>
        <time>2012-10-16T15:15:48Z</time>
      </trkpt>
      <trkpt lat="43.40609" lon="6.08381">
        <ele>211.39999389648</ele>
        <time>2012-10-16T15:15:53Z</time>
      </trkpt>
      <trkpt lat="43.40552" lon="6.08374">
        <ele>212.19999694824</ele>
        <time>2012-10-16T15:16:10Z</time>
      </trkpt>
      <trkpt lat="43.40511" lon="6.08366">
        <ele>213.39999389648</ele>
        <time>2012-10-16T15:16:24Z</time>
      </trkpt>
      <trkpt lat="43.40523" lon="6.08236">
        <ele>215.80000305176</ele>
        <time>2012-10-16T15:16:54Z</time>
      </trkpt>
      <trkpt lat="43.40532" lon="6.08193">
        <ele>215.80000305176</ele>
        <time>2012-10-16T15:17:03Z</time>
      </trkpt>
      <trkpt lat="43.40544" lon="6.08175">
        <ele>215.80000305176</ele>
        <time>2012-10-16T15:17:08Z</time>
      </trkpt>
      <trkpt lat="43.40553" lon="6.08152">
        <ele>215.80000305176</ele>
        <time>2012-10-16T15:17:13Z</time>
      </trkpt>
      <trkpt lat="43.4055" lon="6.08131">
        <ele>215.80000305176</ele>
        <time>2012-10-16T15:17:17Z</time>
      </trkpt>
      <trkpt lat="43.40538" lon="6.08117">
        <ele>215.80000305176</ele>
        <time>2012-10-16T15:17:21Z</time>
      </trkpt>
      <trkpt lat="43.40522" lon="6.08117">
        <ele>215.80000305176</ele>
        <time>2012-10-16T15:17:25Z</time>
      </trkpt>
      <trkpt lat="43.40495" lon="6.08137">
        <ele>215.80000305176</ele>
        <time>2012-10-16T15:17:32Z</time>
      </trkpt>
      <trkpt lat="43.40482" lon="6.08138">
        <ele>215.80000305176</ele>
        <time>2012-10-16T15:17:35Z</time>
      </trkpt>
      <trkpt lat="43.40453" lon="6.08134">
        <ele>215.80000305176</ele>
        <time>2012-10-16T15:17:43Z</time>
      </trkpt>
      <trkpt lat="43.40393" lon="6.08125">
        <ele>220</ele>
        <time>2012-10-16T15:18:09Z</time>
      </trkpt>
      <trkpt lat="43.40371" lon="6.08123">
        <ele>222</ele>
        <time>2012-10-16T15:18:17Z</time>
      </trkpt>
      <trkpt lat="43.4034" lon="6.08124">
        <ele>222.39999389648</ele>
        <time>2012-10-16T15:18:28Z</time>
      </trkpt>
      <trkpt lat="43.40305" lon="6.08133">
        <ele>224</ele>
        <time>2012-10-16T15:18:39Z</time>
      </trkpt>
      <trkpt lat="43.40282" lon="6.08143">
        <ele>224</ele>
        <time>2012-10-16T15:18:47Z</time>
      </trkpt>
      <trkpt lat="43.40241" lon="6.08178">
        <ele>226</ele>
        <time>2012-10-16T15:19:04Z</time>
      </trkpt>
      <trkpt lat="43.40168" lon="6.08269">
        <ele>233.60000610352</ele>
        <time>2012-10-16T15:19:45Z</time>
      </trkpt>
      <trkpt lat="43.40144" lon="6.08292">
        <ele>235.19999694824</ele>
        <time>2012-10-16T15:19:57Z</time>
      </trkpt>
      <trkpt lat="43.40138" lon="6.08297">
        <ele>236.60000610352</ele>
        <time>2012-10-16T15:20:00Z</time>
      </trkpt>
      <trkpt lat="43.40121" lon="6.08309">
        <ele>237</ele>
        <time>2012-10-16T15:20:08Z</time>
      </trkpt>
      <trkpt lat="43.401" lon="6.0832">
        <ele>238.60000610352</ele>
        <time>2012-10-16T15:20:18Z</time>
      </trkpt>
      <trkpt lat="43.40083" lon="6.08323">
        <ele>240.60000610352</ele>
        <time>2012-10-16T15:20:25Z</time>
      </trkpt>
      <trkpt lat="43.40074" lon="6.08309">
        <ele>240.60000610352</ele>
        <time>2012-10-16T15:20:31Z</time>
      </trkpt>
      <trkpt lat="43.40067" lon="6.08263">
        <ele>240.60000610352</ele>
        <time>2012-10-16T15:20:42Z</time>
      </trkpt>
      <trkpt lat="43.40064" lon="6.08255">
        <ele>240.60000610352</ele>
        <time>2012-10-16T15:20:44Z</time>
      </trkpt>
      <trkpt lat="43.40051" lon="6.08207">
        <ele>240.60000610352</ele>
        <time>2012-10-16T15:20:53Z</time>
      </trkpt>
      <trkpt lat="43.40051" lon="6.0818">
        <ele>240.60000610352</ele>
        <time>2012-10-16T15:20:58Z</time>
      </trkpt>
      <trkpt lat="43.40049" lon="6.08177">
        <ele>240.60000610352</ele>
        <time>2012-10-16T15:20:59Z</time>
      </trkpt>
      <trkpt lat="43.40033" lon="6.08172">
        <ele>238.60000610352</ele>
        <time>2012-10-16T15:21:04Z</time>
      </trkpt>
      <trkpt lat="43.40005" lon="6.08174">
        <ele>238.60000610352</ele>
        <time>2012-10-16T15:21:13Z</time>
      </trkpt>
      <trkpt lat="43.39985" lon="6.08172">
        <ele>238.60000610352</ele>
        <time>2012-10-16T15:21:20Z</time>
      </trkpt>
      <trkpt lat="43.39971" lon="6.0816">
        <ele>238.60000610352</ele>
        <time>2012-10-16T15:21:26Z</time>
      </trkpt>
      <trkpt lat="43.39953" lon="6.08129">
        <ele>241.19999694824</ele>
        <time>2012-10-16T15:21:38Z</time>
      </trkpt>
      <trkpt lat="43.39899" lon="6.08065">
        <ele>243.60000610352</ele>
        <time>2012-10-16T15:22:04Z</time>
      </trkpt>
      <trkpt lat="43.39871" lon="6.08035">
        <ele>248.80000305176</ele>
        <time>2012-10-16T15:22:24Z</time>
      </trkpt>
      <trkpt lat="43.39861" lon="6.08028">
        <ele>248.80000305176</ele>
        <time>2012-10-16T15:22:29Z</time>
      </trkpt>
      <trkpt lat="43.39815" lon="6.07995">
        <ele>248.80000305176</ele>
        <time>2012-10-16T15:22:47Z</time>
      </trkpt>
      <trkpt lat="43.39777" lon="6.07977">
        <ele>250.19999694824</ele>
        <time>2012-10-16T15:23:02Z</time>
      </trkpt>
      <trkpt lat="43.3974" lon="6.07958">
        <ele>253</ele>
        <time>2012-10-16T15:23:20Z</time>
      </trkpt>
      <trkpt lat="43.39718" lon="6.07932">
        <ele>253.60000610352</ele>
        <time>2012-10-16T15:23:33Z</time>
      </trkpt>
      <trkpt lat="43.39699" lon="6.07908">
        <ele>257</ele>
        <time>2012-10-16T15:23:47Z</time>
      </trkpt>
      <trkpt lat="43.39682" lon="6.07894">
        <ele>259.39999389648</ele>
        <time>2012-10-16T15:23:58Z</time>
      </trkpt>
      <trkpt lat="43.39663" lon="6.07888">
        <ele>259.79998779297</ele>
        <time>2012-10-16T15:24:08Z</time>
      </trkpt>
      <trkpt lat="43.39659" lon="6.07888">
        <ele>260.79998779297</ele>
        <time>2012-10-16T15:24:10Z</time>
      </trkpt>
      <trkpt lat="43.3964" lon="6.0789">
        <ele>261.60000610352</ele>
        <time>2012-10-16T15:24:18Z</time>
      </trkpt>
      <trkpt lat="43.39606" lon="6.07903">
        <ele>262</ele>
        <time>2012-10-16T15:24:33Z</time>
      </trkpt>
      <trkpt lat="43.39592" lon="6.07904">
        <ele>263.60000610352</ele>
        <time>2012-10-16T15:24:40Z</time>
      </trkpt>
      <trkpt lat="43.39582" lon="6.07906">
        <ele>265.79998779297</ele>
        <time>2012-10-16T15:24:47Z</time>
      </trkpt>
      <trkpt lat="43.39571" lon="6.07932">
        <ele>266.60000610352</ele>
        <time>2012-10-16T15:25:05Z</time>
      </trkpt>
      <trkpt lat="43.3956" lon="6.07934">
        <ele>268</ele>
        <time>2012-10-16T15:25:14Z</time>
      </trkpt>
      <trkpt lat="43.39523" lon="6.0795">
        <ele>272</ele>
        <time>2012-10-16T15:25:42Z</time>
      </trkpt>
      <trkpt lat="43.395" lon="6.07959">
        <ele>274.20001220703</ele>
        <time>2012-10-16T15:25:58Z</time>
      </trkpt>
      <trkpt lat="43.39474" lon="6.07955">
        <ele>276</ele>
        <time>2012-10-16T15:26:12Z</time>
      </trkpt>
      <trkpt lat="43.39452" lon="6.07963">
        <ele>276.39999389648</ele>
        <time>2012-10-16T15:26:27Z</time>
      </trkpt>
      <trkpt lat="43.39431" lon="6.07977">
        <ele>278.39999389648</ele>
        <time>2012-10-16T15:26:42Z</time>
      </trkpt>
      <trkpt lat="43.39415" lon="6.07972">
        <ele>279.60000610352</ele>
        <time>2012-10-16T15:26:52Z</time>
      </trkpt>
      <trkpt lat="43.39406" lon="6.07975">
        <ele>280.60000610352</ele>
        <time>2012-10-16T15:26:58Z</time>
      </trkpt>
      <trkpt lat="43.39401" lon="6.07982">
        <ele>280.60000610352</ele>
        <time>2012-10-16T15:27:03Z</time>
      </trkpt>
      <trkpt lat="43.39394" lon="6.07983">
        <ele>280.60000610352</ele>
        <time>2012-10-16T15:27:09Z</time>
      </trkpt>
      <trkpt lat="43.39394" lon="6.07968">
        <ele>282.60000610352</ele>
        <time>2012-10-16T15:27:18Z</time>
      </trkpt>
      <trkpt lat="43.39394" lon="6.07967">
        <ele>282.60000610352</ele>
        <time>2012-10-16T15:27:23Z</time>
      </trkpt>
      <trkpt lat="43.39388" lon="6.07966">
        <ele>284.20001220703</ele>
        <time>2012-10-16T15:27:33Z</time>
      </trkpt>
      <trkpt lat="43.39388" lon="6.07966">
        <ele>284.60000610352</ele>
        <time>2012-10-16T15:27:48Z</time>
      </trkpt>
      <trkpt lat="43.39384" lon="6.07965">
        <ele>284.60000610352</ele>
        <time>2012-10-16T15:28:04Z</time>
      </trkpt>
      <trkpt lat="43.39376" lon="6.07969">
        <ele>284.60000610352</ele>
        <time>2012-10-16T15:28:27Z</time>
      </trkpt>
      <trkpt lat="43.39365" lon="6.07971">
        <ele>285</ele>
        <time>2012-10-16T15:28:39Z</time>
      </trkpt>
      <trkpt lat="43.39363" lon="6.07978">
        <ele>286.79998779297</ele>
        <time>2012-10-16T15:28:44Z</time>
      </trkpt>
      <trkpt lat="43.39363" lon="6.07982">
        <ele>286.79998779297</ele>
        <time>2012-10-16T15:29:06Z</time>
      </trkpt>
      <trkpt lat="43.39363" lon="6.07981">
        <ele>286.79998779297</ele>
        <time>2012-10-16T15:29:39Z</time>
      </trkpt>
      <trkpt lat="43.39363" lon="6.07975">
        <ele>286.79998779297</ele>
        <time>2012-10-16T15:34:29Z</time>
      </trkpt>
      <trkpt lat="43.3936" lon="6.07986">
        <ele>286.79998779297</ele>
        <time>2012-10-16T15:35:04Z</time>
      </trkpt>
      <trkpt lat="43.39359" lon="6.07983">
        <ele>286.79998779297</ele>
        <time>2012-10-16T15:35:40Z</time>
      </trkpt>
    </trkseg>
  </trk>
</gpx>